Observation data for McCamey on 11/11/2019      Previous  Date       Current Mesonet Observations  Soil Data  Daily Summary Page  Observations in Plain Language
KMC4 110600Z 14006KT 16/14 A2997 RMK A01 T01590136  RH  086%=      5-min Rain = 0
KMC4 110601Z 14006KT 16/14 A2997 RMK A01 T01590136  RH  086%=      5-min Rain = 0
KMC4 110602Z 14006KT 16/14 A2997 RMK A01 T01580135  RH  086%=      5-min Rain = 0
KMC4 110603Z 13006KT 16/14 A2997 RMK A01 T01580135  RH  087%=      5-min Rain = 0
KMC4 110604Z 13006KT 16/14 A2996 RMK A01 T01570135  RH  087%=      5-min Rain = 0
KMC4 110605Z 13006KT 16/14 A2996 RMK A01 T01570136  RH  087%=      5-min Rain = 0
KMC4 110606Z 13006KT 16/14 A2996 RMK A01 T01570135  RH  087%=      5-min Rain = 0
KMC4 110607Z 13006KT 16/14 A2996 RMK A01 T01570136  RH  087%=      5-min Rain = 0
KMC4 110608Z 13007KT 16/14 A2996 RMK A01 T01570135  RH  087%=      5-min Rain = 0
KMC4 110609Z 13007KT 16/14 A2996 RMK A01 T01570135  RH  087%=      5-min Rain = 0
KMC4 110610Z 13007KT 16/14 A2996 RMK A01 T01570135  RH  087%=      5-min Rain = 0
KMC4 110611Z 13007KT 16/14 A2996 RMK A01 T01570135  RH  087%=      5-min Rain = 0
KMC4 110612Z 13007KT 16/14 A2996 RMK A01 T01570136  RH  087%=      5-min Rain = 0
KMC4 110613Z 13006KT 16/14 A2996 RMK A01 T01570136  RH  087%=      5-min Rain = 0
KMC4 110614Z 13006KT 16/14 A2996 RMK A01 T01570136  RH  087%=      5-min Rain = 0
KMC4 110615Z 12005KT 16/14 A2996 RMK A01 T01570135  RH  087%=      5-min Rain = 0
KMC4 110616Z 13006KT 16/14 A2996 RMK A01 T01570135  RH  087%=      5-min Rain = 0
KMC4 110617Z 12007KT 16/14 A2996 RMK A01 T01570136  RH  087%=      5-min Rain = 0
KMC4 110618Z 12006KT 16/14 A2996 RMK A01 T01570136  RH  087%=      5-min Rain = 0
KMC4 110619Z 12006KT 16/14 A2996 RMK A01 T01570135  RH  087%=      5-min Rain = 0
KMC4 110620Z 12006KT 16/14 A2996 RMK A01 T01570136  RH  087%=      5-min Rain = 0
KMC4 110621Z 12006KT 16/14 A2996 RMK A01 T01560135  RH  087%=      5-min Rain = 0
KMC4 110622Z 11005KT 16/14 A2995 RMK A01 T01560135  RH  088%=      5-min Rain = 0
KMC4 110623Z 12006KT 16/14 A2995 RMK A01 T01560135  RH  088%=      5-min Rain = 0
KMC4 110624Z 12006KT 16/14 A2995 RMK A01 T01550135  RH  088%=      5-min Rain = 0
KMC4 110625Z 12005KT 16/14 A2995 RMK A01 T01550135  RH  088%=      5-min Rain = 0
KMC4 110626Z 11005KT 16/14 A2995 RMK A01 T01550135  RH  088%=      5-min Rain = 0
KMC4 110627Z 11005KT 16/14 A2995 RMK A01 T01550135  RH  088%=      5-min Rain = 0
KMC4 110628Z 11004KT 16/14 A2995 RMK A01 T01550135  RH  088%=      5-min Rain = 0
KMC4 110629Z 12004KT 15/14 A2995 RMK A01 T01540135  RH  088%=      5-min Rain = 0
KMC4 110630Z 11004KT 15/14 A2995 RMK A01 T01540135  RH  088%=      5-min Rain = 0
KMC4 110631Z 11004KT 15/14 A2995 RMK A01 T01540135  RH  088%=      5-min Rain = 0
KMC4 110632Z 12004KT 15/14 A2995 RMK A01 T01540135  RH  088%=      5-min Rain = 0
KMC4 110633Z 12005KT 15/14 A2995 RMK A01 T01540135  RH  088%=      5-min Rain = 0
KMC4 110634Z 12005KT 15/14 A2995 RMK A01 T01540135  RH  088%=      5-min Rain = 0
KMC4 110635Z 12005KT 15/14 A2995 RMK A01 T01540135  RH  088%=      5-min Rain = 0
KMC4 110636Z 12005KT 15/14 A2995 RMK A01 T01540135  RH  088%=      5-min Rain = 0
KMC4 110637Z 12006KT 15/13 A2995 RMK A01 T01530134  RH  088%=      5-min Rain = 0
KMC4 110638Z 12005KT 15/14 A2995 RMK A01 T01530135  RH  089%=      5-min Rain = 0
KMC4 110639Z 12006KT 15/14 A2995 RMK A01 T01530135  RH  089%=      5-min Rain = 0
KMC4 110640Z 12005KT 15/14 A2995 RMK A01 T01530135  RH  089%=      5-min Rain = 0
KMC4 110641Z 12005KT 15/14 A2995 RMK A01 T01530135  RH  089%=      5-min Rain = 0
KMC4 110642Z 11005KT 15/13 A2995 RMK A01 T01530134  RH  089%=      5-min Rain = 0
KMC4 110643Z 11004KT 15/14 A2995 RMK A01 T01530135  RH  089%=      5-min Rain = 0
KMC4 110644Z 11003KT 15/14 A2995 RMK A01 T01530135  RH  089%=      5-min Rain = 0
KMC4 110645Z 11003KT 15/14 A2995 RMK A01 T01530135  RH  089%=      5-min Rain = 0
KMC4 110646Z 11004KT 15/14 A2995 RMK A01 T01530135  RH  089%=      5-min Rain = 0
KMC4 110647Z 11003KT 15/13 A2995 RMK A01 T01530134  RH  089%=      5-min Rain = 0
KMC4 110648Z 11004KT 15/14 A2995 RMK A01 T01530135  RH  089%=      5-min Rain = 0
KMC4 110649Z 12005KT 15/14 A2995 RMK A01 T01530135  RH  089%=      5-min Rain = 0
KMC4 110650Z 12006KT 15/14 A2995 RMK A01 T01530135  RH  089%=      5-min Rain = 0
KMC4 110651Z 12006KT 15/14 A2995 RMK A01 T01530135  RH  089%=      5-min Rain = 0
KMC4 110652Z 13005KT 15/14 A2995 RMK A01 T01540135  RH  088%=      5-min Rain = 0
KMC4 110653Z 13006KT 15/14 A2995 RMK A01 T01540135  RH  088%=      5-min Rain = 0
KMC4 110654Z 13006KT 15/13 A2995 RMK A01 T01540134  RH  088%=      5-min Rain = 0
KMC4 110655Z 12005KT 15/13 A2995 RMK A01 T01530134  RH  089%=      5-min Rain = 0
KMC4 110656Z 12005KT 15/13 A2995 RMK A01 T01520134  RH  089%=      5-min Rain = 0
KMC4 110657Z 12004KT 15/13 A2995 RMK A01 T01520134  RH  089%=      5-min Rain = 0
KMC4 110658Z 11004KT 15/13 A2995 RMK A01 T01520134  RH  089%=      5-min Rain = 0
KMC4 110659Z 12004KT 15/13 A2995 RMK A01 T01510134  RH  089%=      5-min Rain = 0
KMC4 110700Z 12004KT 15/13 A2994 RMK A01 T01510134  RH  089%=      5-min Rain = 0
KMC4 110701Z 11004KT 15/13 A2994 RMK A01 T01510134  RH  090%=      5-min Rain = 0
KMC4 110702Z 12006KT 15/13 A2994 RMK A01 T01500134  RH  090%=      5-min Rain = 0
KMC4 110703Z 13006KT 15/13 A2994 RMK A01 T01500134  RH  090%=      5-min Rain = 0
KMC4 110704Z 13006KT 15/13 A2994 RMK A01 T01510134  RH  090%=      5-min Rain = 0
KMC4 110705Z 14006KT 15/13 A2994 RMK A01 T01510134  RH  090%=      5-min Rain = 0
KMC4 110706Z 14006KT 15/13 A2994 RMK A01 T01510134  RH  089%=      5-min Rain = 0
KMC4 110707Z 14006KT 15/13 A2994 RMK A01 T01520134  RH  089%=      5-min Rain = 0
KMC4 110708Z 14006KT 15/13 A2994 RMK A01 T01520134  RH  089%=      5-min Rain = 0
KMC4 110709Z 14006KT 15/13 A2994 RMK A01 T01510134  RH  089%=      5-min Rain = 0
KMC4 110710Z 14007KT 15/13 A2994 RMK A01 T01510134  RH  090%=      5-min Rain = 0
KMC4 110711Z 14006KT 15/13 A2994 RMK A01 T01510134  RH  090%=      5-min Rain = 0
KMC4 110712Z 14006KT 15/13 A2994 RMK A01 T01500133  RH  090%=      5-min Rain = 0
KMC4 110713Z 13006KT 15/13 A2994 RMK A01 T01490133  RH  090%=      5-min Rain = 0
KMC4 110714Z 13005KT 15/13 A2994 RMK A01 T01490133  RH  090%=      5-min Rain = 0
KMC4 110715Z 12005KT 15/13 A2994 RMK A01 T01490133  RH  091%=      5-min Rain = 0
KMC4 110716Z 12005KT 15/13 A2994 RMK A01 T01490134  RH  091%=      5-min Rain = 0
KMC4 110717Z 11004KT 15/13 A2994 RMK A01 T01480134  RH  091%=      5-min Rain = 0
KMC4 110718Z 10003KT 15/13 A2995 RMK A01 T01480134  RH  091%=      5-min Rain = 0
KMC4 110719Z 10003KT 15/13 A2995 RMK A01 T01480134  RH  091%=      5-min Rain = 0
KMC4 110720Z 10003KT 15/13 A2994 RMK A01 T01490134  RH  091%=      5-min Rain = 0
KMC4 110721Z 12004KT 15/13 A2994 RMK A01 T01490134  RH  091%=      5-min Rain = 0
KMC4 110722Z 12004KT 15/13 A2994 RMK A01 T01490134  RH  091%=      5-min Rain = 0
KMC4 110723Z 14005KT 15/13 A2994 RMK A01 T01490133  RH  090%=      5-min Rain = 0
KMC4 110724Z 14007KT 15/13 A2994 RMK A01 T01490134  RH  090%=      5-min Rain = 0
KMC4 110725Z 14007KT 15/13 A2994 RMK A01 T01490133  RH  090%=      5-min Rain = 0
KMC4 110726Z 14008KT 15/13 A2994 RMK A01 T01490133  RH  090%=      5-min Rain = 0
KMC4 110727Z 14007KT 15/13 A2994 RMK A01 T01490134  RH  090%=      5-min Rain = 0
KMC4 110728Z 13006KT 15/13 A2994 RMK A01 T01490134  RH  091%=      5-min Rain = 0
KMC4 110729Z 12006KT 15/13 A2994 RMK A01 T01490134  RH  091%=      5-min Rain = 0
KMC4 110730Z 11005KT 15/13 A2994 RMK A01 T01490134  RH  091%=      5-min Rain = 0
KMC4 110731Z 10005KT 15/13 A2994 RMK A01 T01480134  RH  091%=      5-min Rain = 0
KMC4 110732Z 09004KT 15/13 A2994 RMK A01 T01480134  RH  091%=      5-min Rain = 0
KMC4 110733Z 09004KT 15/13 A2994 RMK A01 T01480134  RH  091%=      5-min Rain = 0
KMC4 110734Z 10004KT 15/13 A2994 RMK A01 T01490134  RH  091%=      5-min Rain = 0
KMC4 110735Z 10003KT 15/13 A2994 RMK A01 T01490134  RH  091%=      5-min Rain = 0
KMC4 110736Z 10003KT 15/13 A2994 RMK A01 T01490134  RH  091%=      5-min Rain = 0
KMC4 110737Z 12004KT 15/13 A2994 RMK A01 T01490134  RH  091%=      5-min Rain = 0
KMC4 110738Z 12004KT 15/13 A2994 RMK A01 T01490134  RH  091%=      5-min Rain = 0
KMC4 110739Z 13005KT 15/13 A2994 RMK A01 T01490134  RH  091%=      5-min Rain = 0
KMC4 110740Z 13006KT 15/13 A2994 RMK A01 T01490134  RH  091%=      5-min Rain = 0
KMC4 110741Z 14007KT 15/13 A2994 RMK A01 T01480134  RH  091%=      5-min Rain = 0
KMC4 110742Z 15006KT 15/13 A2994 RMK A01 T01490134  RH  091%=      5-min Rain = 0
KMC4 110743Z 14007KT 15/13 A2994 RMK A01 T01480134  RH  091%=      5-min Rain = 0
KMC4 110744Z 14006KT 15/13 A2995 RMK A01 T01480134  RH  091%=      5-min Rain = 0
KMC4 110745Z 14007KT 15/13 A2995 RMK A01 T01480134  RH  091%=      5-min Rain = 0
KMC4 110746Z 14006KT 15/13 A2995 RMK A01 T01470134  RH  092%=      5-min Rain = 0
KMC4 110747Z 14007KT 15/13 A2995 RMK A01 T01470134  RH  092%=      5-min Rain = 0
KMC4 110748Z 13007KT 15/13 A2995 RMK A01 T01470134  RH  092%=      5-min Rain = 0
KMC4 110749Z 13006KT 15/13 A2995 RMK A01 T01470134  RH  092%=      5-min Rain = 0
KMC4 110750Z 13007KT 15/13 A2995 RMK A01 T01470134  RH  092%=      5-min Rain = 0
KMC4 110751Z 13007KT 15/13 A2995 RMK A01 T01470134  RH  092%=      5-min Rain = 0
KMC4 110752Z 13008KT 15/13 A2994 RMK A01 T01470134  RH  092%=      5-min Rain = 0
KMC4 110753Z 13008KT 15/13 A2994 RMK A01 T01470134  RH  092%=      5-min Rain = 0
KMC4 110754Z 13008KT 15/13 A2994 RMK A01 T01480134  RH  092%=      5-min Rain = 0
KMC4 110755Z 13007KT 15/13 A2994 RMK A01 T01480134  RH  091%=      5-min Rain = 0
KMC4 110756Z 13008KT 15/13 A2994 RMK A01 T01480134  RH  092%=      5-min Rain = 0
KMC4 110757Z 13008KT 15/13 A2994 RMK A01 T01480134  RH  092%=      5-min Rain = 0
KMC4 110758Z 13008KT 15/13 A2994 RMK A01 T01480134  RH  092%=      5-min Rain = 0
KMC4 110759Z 13007KT 15/13 A2994 RMK A01 T01470134  RH  092%=      5-min Rain = 0
KMC4 110800Z 13007KT 15/13 A2994 RMK A01 T01470134  RH  092%=      5-min Rain = 0
KMC4 110801Z 13008KT 15/13 A2994 RMK A01 T01470134  RH  092%=      5-min Rain = 0
KMC4 110802Z 13008KT 15/13 A2994 RMK A01 T01470134  RH  092%=      5-min Rain = 0
KMC4 110803Z 12008KT 15/13 A2994 RMK A01 T01470134  RH  092%=      5-min Rain = 0
KMC4 110804Z 12007KT 15/13 A2994 RMK A01 T01470134  RH  092%=      5-min Rain = 0
KMC4 110805Z 12006KT 15/13 A2994 RMK A01 T01470134  RH  092%=      5-min Rain = 0
KMC4 110806Z 12005KT 15/14 A2994 RMK A01 T01480135  RH  092%=      5-min Rain = 0
KMC4 110807Z 11006KT 15/14 A2994 RMK A01 T01480135  RH  092%=      5-min Rain = 0
KMC4 110808Z 12005KT 15/13 A2994 RMK A01 T01480134  RH  092%=      5-min Rain = 0
KMC4 110809Z 12006KT 15/13 A2994 RMK A01 T01480134  RH  092%=      5-min Rain = 0
KMC4 110810Z 12006KT 15/13 A2994 RMK A01 T01480134  RH  092%=      5-min Rain = 0
KMC4 110811Z 11006KT 15/13 A2994 RMK A01 T01480134  RH  092%=      5-min Rain = 0
KMC4 110812Z 11006KT 15/13 A2994 RMK A01 T01480134  RH  092%=      5-min Rain = 0
KMC4 110813Z 12007KT 15/13 A2994 RMK A01 T01470134  RH  092%=      5-min Rain = 0
KMC4 110814Z 12006KT 15/13 A2994 RMK A01 T01480134  RH  092%=      5-min Rain = 0
KMC4 110815Z 12006KT 15/13 A2994 RMK A01 T01480134  RH  092%=      5-min Rain = 0
KMC4 110816Z 12008KT 15/13 A2994 RMK A01 T01470134  RH  092%=      5-min Rain = 0
KMC4 110817Z 12008KT 15/14 A2994 RMK A01 T01470135  RH  092%=      5-min Rain = 0
KMC4 110818Z 13006KT 15/13 A2994 RMK A01 T01470134  RH  092%=      5-min Rain = 0
KMC4 110819Z 12006KT 15/13 A2994 RMK A01 T01470134  RH  092%=      5-min Rain = 0
KMC4 110820Z 13005KT 15/13 A2994 RMK A01 T01470134  RH  092%=      5-min Rain = 0
KMC4 110821Z 13007KT 15/13 A2994 RMK A01 T01470134  RH  092%=      5-min Rain = 0
KMC4 110822Z 13006KT 15/13 A2994 RMK A01 T01470134  RH  092%=      5-min Rain = 0
KMC4 110823Z 13007KT 15/13 A2994 RMK A01 T01460133  RH  092%=      5-min Rain = 0
KMC4 110824Z 14007KT 15/13 A2995 RMK A01 T01450133  RH  093%=      5-min Rain = 0
KMC4 110825Z 14007KT 15/13 A2995 RMK A01 T01450134  RH  093%=      5-min Rain = 0
KMC4 110826Z 14007KT 15/13 A2995 RMK A01 T01450134  RH  093%=      5-min Rain = 0
KMC4 110827Z 13007KT 15/13 A2995 RMK A01 T01450133  RH  093%=      5-min Rain = 0
KMC4 110828Z 14007KT 15/13 A2995 RMK A01 T01450134  RH  093%=      5-min Rain = 0
KMC4 110829Z 14007KT 14/13 A2994 RMK A01 T01440133  RH  093%=      5-min Rain = 0
KMC4 110830Z 13007KT 14/13 A2994 RMK A01 T01440133  RH  093%=      5-min Rain = 0
KMC4 110831Z 14007KT 14/13 A2994 RMK A01 T01440133  RH  093%=      5-min Rain = 0
KMC4 110832Z 14007KT 14/13 A2994 RMK A01 T01430133  RH  094%=      5-min Rain = 0
KMC4 110833Z 14008KT 14/13 A2994 RMK A01 T01430134  RH  094%=      5-min Rain = 0
KMC4 110834Z 14008KT 14/13 A2994 RMK A01 T01430133  RH  094%=      5-min Rain = 0
KMC4 110835Z 14007KT 14/13 A2994 RMK A01 T01430134  RH  094%=      5-min Rain = 0
KMC4 110836Z 14008KT 14/13 A2994 RMK A01 T01430133  RH  094%=      5-min Rain = 0
KMC4 110837Z 14007KT 14/13 A2994 RMK A01 T01430134  RH  094%=      5-min Rain = 0
KMC4 110838Z 13007KT 14/13 A2994 RMK A01 T01430134  RH  094%=      5-min Rain = 0
KMC4 110839Z 13006KT 14/13 A2994 RMK A01 T01440134  RH  094%=      5-min Rain = 0
KMC4 110840Z 12005KT 14/13 A2994 RMK A01 T01430134  RH  094%=      5-min Rain = 0
KMC4 110841Z 11005KT 14/13 A2994 RMK A01 T01430133  RH  094%=      5-min Rain = 0
KMC4 110842Z 11005KT 14/13 A2994 RMK A01 T01430134  RH  094%=      5-min Rain = 0
KMC4 110843Z 11004KT 14/13 A2994 RMK A01 T01430133  RH  094%=      5-min Rain = 0
KMC4 110844Z 11005KT 14/13 A2994 RMK A01 T01430133  RH  094%=      5-min Rain = 0
KMC4 110845Z 11003KT 14/13 A2994 RMK A01 T01430133  RH  094%=      5-min Rain = 0
KMC4 110846Z 12004KT 14/13 A2994 RMK A01 T01430133  RH  094%=      5-min Rain = 0
KMC4 110847Z 12004KT 14/13 A2994 RMK A01 T01430133  RH  094%=      5-min Rain = 0
KMC4 110848Z 13004KT 14/13 A2994 RMK A01 T01430133  RH  094%=      5-min Rain = 0
KMC4 110849Z 13005KT 14/13 A2994 RMK A01 T01430133  RH  094%=      5-min Rain = 0
KMC4 110850Z 13005KT 14/13 A2994 RMK A01 T01430133  RH  094%=      5-min Rain = 0
KMC4 110851Z 14005KT 14/13 A2994 RMK A01 T01430133  RH  094%=      5-min Rain = 0
KMC4 110852Z 13005KT 14/13 A2994 RMK A01 T01430133  RH  094%=      5-min Rain = 0
KMC4 110853Z 13006KT 14/13 A2994 RMK A01 T01420133  RH  094%=      5-min Rain = 0
KMC4 110854Z 13005KT 14/13 A2994 RMK A01 T01420133  RH  094%=      5-min Rain = 0
KMC4 110855Z 13005KT 14/13 A2994 RMK A01 T01420133  RH  094%=      5-min Rain = 0
KMC4 110856Z 12005KT 14/13 A2994 RMK A01 T01420133  RH  094%=      5-min Rain = 0
KMC4 110857Z 11005KT 14/13 A2994 RMK A01 T01420133  RH  094%=      5-min Rain = 0
KMC4 110858Z 11005KT 14/13 A2994 RMK A01 T01420133  RH  094%=      5-min Rain = 0
KMC4 110859Z 12005KT 14/13 A2994 RMK A01 T01420133  RH  094%=      5-min Rain = 0
KMC4 110900Z 12004KT 14/13 A2994 RMK A01 T01420134  RH  095%=      5-min Rain = 0
KMC4 110901Z 13005KT 14/13 A2994 RMK A01 T01420133  RH  095%=      5-min Rain = 0
KMC4 110902Z 13005KT 14/13 A2994 RMK A01 T01420133  RH  094%=      5-min Rain = 0
KMC4 110903Z 13005KT 14/13 A2994 RMK A01 T01430134  RH  094%=      5-min Rain = 0
KMC4 110904Z 14006KT 14/13 A2994 RMK A01 T01430134  RH  094%=      5-min Rain = 0
KMC4 110905Z 14006KT 14/13 A2994 RMK A01 T01430134  RH  094%=      5-min Rain = 0
KMC4 110906Z 14006KT 14/13 A2994 RMK A01 T01430133  RH  094%=      5-min Rain = 0
KMC4 110907Z 14006KT 14/13 A2994 RMK A01 T01430133  RH  094%=      5-min Rain = 0
KMC4 110908Z 14007KT 14/13 A2994 RMK A01 T01420132  RH  094%=      5-min Rain = 0
KMC4 110909Z 14007KT 14/13 A2994 RMK A01 T01420132  RH  094%=      5-min Rain = 0
KMC4 110910Z 14007KT 14/13 A2994 RMK A01 T01420133  RH  094%=      5-min Rain = 0
KMC4 110911Z 14006KT 14/13 A2994 RMK A01 T01420133  RH  094%=      5-min Rain = 0
KMC4 110912Z 13006KT 14/13 A2994 RMK A01 T01420133  RH  094%=      5-min Rain = 0
KMC4 110913Z 13006KT 14/13 A2994 RMK A01 T01410132  RH  094%=      5-min Rain = 0
KMC4 110914Z 13006KT 14/13 A2994 RMK A01 T01410133  RH  095%=      5-min Rain = 0
KMC4 110915Z 13006KT 14/13 A2994 RMK A01 T01410133  RH  095%=      5-min Rain = 0
KMC4 110916Z 13007KT 14/13 A2994 RMK A01 T01410133  RH  095%=      5-min Rain = 0
KMC4 110917Z 13007KT 14/13 A2994 RMK A01 T01410133  RH  095%=      5-min Rain = 0
KMC4 110918Z 13007KT 14/13 A2994 RMK A01 T01420133  RH  095%=      5-min Rain = 0
KMC4 110919Z 13007KT 14/13 A2994 RMK A01 T01420133  RH  095%=      5-min Rain = 0
KMC4 110920Z 12006KT 14/13 A2994 RMK A01 T01420133  RH  095%=      5-min Rain = 0
KMC4 110921Z 12006KT 14/13 A2994 RMK A01 T01420133  RH  095%=      5-min Rain = 0
KMC4 110922Z 11005KT 14/13 A2994 RMK A01 T01420134  RH  095%=      5-min Rain = 0
KMC4 110923Z 11005KT 14/13 A2994 RMK A01 T01420134  RH  095%=      5-min Rain = 0
KMC4 110924Z 10004KT 14/13 A2994 RMK A01 T01430134  RH  095%=      5-min Rain = 0
KMC4 110925Z 11004KT 14/13 A2994 RMK A01 T01430134  RH  095%=      5-min Rain = 0
KMC4 110926Z 12004KT 14/13 A2994 RMK A01 T01430134  RH  094%=      5-min Rain = 0
KMC4 110927Z 12004KT 14/13 A2994 RMK A01 T01430134  RH  094%=      5-min Rain = 0
KMC4 110928Z 13005KT 14/13 A2994 RMK A01 T01430134  RH  094%=      5-min Rain = 0
KMC4 110929Z 13005KT 14/13 A2994 RMK A01 T01430134  RH  094%=      5-min Rain = 0
KMC4 110930Z 14005KT 14/13 A2994 RMK A01 T01430133  RH  094%=      5-min Rain = 0
KMC4 110931Z 14004KT 14/13 A2994 RMK A01 T01420133  RH  094%=      5-min Rain = 0
KMC4 110932Z 13004KT 14/13 A2995 RMK A01 T01420132  RH  094%=      5-min Rain = 0
KMC4 110933Z 13004KT 14/13 A2995 RMK A01 T01410132  RH  094%=      5-min Rain = 0
KMC4 110934Z 13004KT 14/13 A2995 RMK A01 T01410132  RH  094%=      5-min Rain = 0
KMC4 110935Z 13004KT 14/13 A2994 RMK A01 T01410132  RH  095%=      5-min Rain = 0
KMC4 110936Z 12004KT 14/13 A2994 RMK A01 T01410132  RH  095%=      5-min Rain = 0
KMC4 110937Z 12004KT 14/13 A2994 RMK A01 T01410133  RH  095%=      5-min Rain = 0
KMC4 110938Z 12005KT 14/13 A2994 RMK A01 T01410133  RH  095%=      5-min Rain = 0
KMC4 110939Z 12005KT 14/13 A2994 RMK A01 T01410133  RH  095%=      5-min Rain = 0
KMC4 110940Z 13006KT 14/13 A2994 RMK A01 T01410133  RH  095%=      5-min Rain = 0
KMC4 110941Z 12006KT 14/13 A2994 RMK A01 T01410133  RH  095%=      5-min Rain = 0
KMC4 110942Z 12006KT 14/13 A2994 RMK A01 T01410133  RH  095%=      5-min Rain = 0
KMC4 110943Z 13006KT 14/13 A2994 RMK A01 T01410133  RH  095%=      5-min Rain = 0
KMC4 110944Z 13005KT 14/13 A2994 RMK A01 T01410133  RH  095%=      5-min Rain = 0
KMC4 110945Z 12005KT 14/13 A2994 RMK A01 T01410133  RH  095%=      5-min Rain = 0
KMC4 110946Z 12005KT 14/13 A2994 RMK A01 T01410133  RH  095%=      5-min Rain = 0
KMC4 110947Z 11004KT 14/13 A2994 RMK A01 T01410133  RH  095%=      5-min Rain = 0
KMC4 110948Z 11004KT 14/13 A2994 RMK A01 T01410134  RH  095%=      5-min Rain = 0
KMC4 110949Z 11004KT 14/13 A2994 RMK A01 T01410134  RH  095%=      5-min Rain = 0
KMC4 110950Z 11004KT 14/13 A2994 RMK A01 T01420134  RH  095%=      5-min Rain = 0
KMC4 110951Z 11004KT 14/13 A2994 RMK A01 T01420134  RH  095%=      5-min Rain = 0
KMC4 110952Z 11004KT 14/13 A2994 RMK A01 T01420134  RH  095%=      5-min Rain = 0
KMC4 110953Z 12003KT 14/13 A2994 RMK A01 T01420134  RH  095%=      5-min Rain = 0
KMC4 110954Z 11003KT 14/13 A2994 RMK A01 T01420134  RH  095%=      5-min Rain = 0
KMC4 110955Z 11002KT 14/13 A2994 RMK A01 T01430134  RH  095%=      5-min Rain = 0
KMC4 110956Z 12003KT 14/13 A2994 RMK A01 T01420134  RH  094%=      5-min Rain = 0
KMC4 110957Z 11002KT 14/13 A2994 RMK A01 T01430134  RH  094%=      5-min Rain = 0
KMC4 110958Z 11003KT 14/13 A2994 RMK A01 T01430134  RH  094%=      5-min Rain = 0
KMC4 110959Z 11002KT 14/13 A2994 RMK A01 T01430134  RH  094%=      5-min Rain = 0
KMC4 111000Z 10003KT 14/13 A2994 RMK A01 T01420133  RH  094%=      5-min Rain = 0
KMC4 111001Z 09002KT 14/13 A2994 RMK A01 T01420133  RH  094%=      5-min Rain = 0
KMC4 111002Z 08003KT 14/13 A2994 RMK A01 T01410132  RH  094%=      5-min Rain = 0
KMC4 111003Z 09003KT 14/13 A2994 RMK A01 T01410132  RH  094%=      5-min Rain = 0
KMC4 111004Z 10003KT 14/13 A2994 RMK A01 T01410132  RH  094%=      5-min Rain = 0
KMC4 111005Z 12003KT 14/13 A2994 RMK A01 T01410132  RH  095%=      5-min Rain = 0
KMC4 111006Z 12003KT 14/13 A2994 RMK A01 T01400132  RH  095%=      5-min Rain = 0
KMC4 111007Z 13003KT 14/13 A2994 RMK A01 T01400131  RH  095%=      5-min Rain = 0
KMC4 111008Z 13003KT 14/13 A2994 RMK A01 T01400131  RH  095%=      5-min Rain = 0
KMC4 111009Z 14004KT 14/13 A2994 RMK A01 T01390131  RH  095%=      5-min Rain = 0
KMC4 111010Z 14004KT 14/13 A2994 RMK A01 T01390131  RH  095%=      5-min Rain = 0
KMC4 111011Z 15003KT 14/13 A2994 RMK A01 T01380130  RH  095%=      5-min Rain = 0
KMC4 111012Z 14003KT 14/13 A2994 RMK A01 T01380130  RH  095%=      5-min Rain = 0
KMC4 111013Z 14004KT 14/13 A2994 RMK A01 T01370130  RH  095%=      5-min Rain = 0
KMC4 111014Z 14004KT 14/13 A2994 RMK A01 T01370130  RH  095%=      5-min Rain = 0
KMC4 111015Z 14004KT 14/13 A2994 RMK A01 T01370130  RH  095%=      5-min Rain = 0
KMC4 111016Z 14005KT 14/13 A2994 RMK A01 T01370130  RH  095%=      5-min Rain = 0
KMC4 111017Z 14005KT 14/13 A2994 RMK A01 T01370130  RH  096%=      5-min Rain = 0
KMC4 111018Z 14005KT 14/13 A2995 RMK A01 T01370130  RH  096%=      5-min Rain = 0
KMC4 111019Z 14005KT 14/13 A2995 RMK A01 T01370130  RH  096%=      5-min Rain = 0
KMC4 111020Z 14004KT 14/13 A2995 RMK A01 T01370130  RH  096%=      5-min Rain = 0
KMC4 111021Z 13004KT 14/13 A2995 RMK A01 T01360130  RH  096%=      5-min Rain = 0
KMC4 111022Z 12004KT 14/13 A2995 RMK A01 T01360130  RH  096%=      5-min Rain = 0
KMC4 111023Z 12003KT 14/13 A2995 RMK A01 T01360130  RH  096%=      5-min Rain = 0
KMC4 111024Z 12002KT 14/13 A2995 RMK A01 T01370131  RH  096%=      5-min Rain = 0
KMC4 111025Z 12003KT 14/13 A2995 RMK A01 T01360131  RH  096%=      5-min Rain = 0
KMC4 111026Z 11002KT 14/13 A2995 RMK A01 T01370132  RH  096%=      5-min Rain = 0
KMC4 111027Z 11003KT 14/13 A2995 RMK A01 T01370131  RH  096%=      5-min Rain = 0
KMC4 111028Z 11003KT 14/13 A2995 RMK A01 T01370132  RH  096%=      5-min Rain = 0
KMC4 111029Z 12004KT 14/13 A2995 RMK A01 T01380133  RH  096%=      5-min Rain = 0
KMC4 111030Z 13003KT 14/13 A2995 RMK A01 T01380133  RH  096%=      5-min Rain = 0
KMC4 111031Z 13003KT 14/13 A2995 RMK A01 T01390133  RH  096%=      5-min Rain = 0
KMC4 111032Z 14003KT 14/13 A2995 RMK A01 T01390133  RH  096%=      5-min Rain = 0
KMC4 111033Z 14004KT 14/13 A2995 RMK A01 T01390133  RH  096%=      5-min Rain = 0
KMC4 111034Z 14004KT 14/13 A2995 RMK A01 T01390133  RH  096%=      5-min Rain = 0
KMC4 111035Z 14004KT 14/13 A2995 RMK A01 T01390133  RH  096%=      5-min Rain = 0
KMC4 111036Z 14004KT 14/13 A2995 RMK A01 T01390133  RH  096%=      5-min Rain = 0
KMC4 111037Z 14004KT 14/13 A2995 RMK A01 T01390133  RH  096%=      5-min Rain = 0
KMC4 111038Z 13003KT 14/13 A2995 RMK A01 T01390133  RH  096%=      5-min Rain = 0
KMC4 111039Z 13003KT 14/13 A2995 RMK A01 T01390133  RH  096%=      5-min Rain = 0
KMC4 111040Z 12003KT 14/13 A2995 RMK A01 T01390133  RH  096%=      5-min Rain = 0
KMC4 111041Z 11003KT 14/13 A2995 RMK A01 T01390133  RH  096%=      5-min Rain = 0
KMC4 111042Z 11003KT 14/13 A2995 RMK A01 T01390133  RH  096%=      5-min Rain = 0
KMC4 111043Z 11003KT 14/13 A2995 RMK A01 T01390133  RH  096%=      5-min Rain = 0
KMC4 111044Z 12003KT 14/13 A2995 RMK A01 T01390133  RH  096%=      5-min Rain = 0
KMC4 111045Z 12003KT 14/13 A2995 RMK A01 T01390133  RH  096%=      5-min Rain = 0
KMC4 111046Z 13002KT 14/13 A2995 RMK A01 T01390133  RH  096%=      5-min Rain = 0
KMC4 111047Z 13002KT 14/13 A2995 RMK A01 T01390133  RH  096%=      5-min Rain = 0
KMC4 111048Z 13003KT 14/13 A2995 RMK A01 T01390133  RH  096%=      5-min Rain = 0
KMC4 111049Z 13003KT 14/13 A2995 RMK A01 T01400133  RH  096%=      5-min Rain = 0
KMC4 111050Z 12002KT 14/13 A2995 RMK A01 T01400134  RH  096%=      5-min Rain = 0
KMC4 111051Z 12002KT 14/13 A2995 RMK A01 T01400134  RH  096%=      5-min Rain = 0
KMC4 111052Z 11003KT 14/13 A2995 RMK A01 T01400134  RH  096%=      5-min Rain = 0
KMC4 111053Z 11003KT 14/13 A2995 RMK A01 T01400134  RH  096%=      5-min Rain = 0
KMC4 111054Z 11002KT 14/13 A2995 RMK A01 T01400133  RH  096%=      5-min Rain = 0
KMC4 111055Z 11002KT 14/13 A2995 RMK A01 T01400134  RH  096%=      5-min Rain = 0
KMC4 111056Z 11002KT 14/13 A2995 RMK A01 T01400134  RH  096%=      5-min Rain = 0
KMC4 111057Z 10002KT 14/13 A2995 RMK A01 T01400134  RH  096%=      5-min Rain = 0
KMC4 111058Z 10003KT 14/13 A2995 RMK A01 T01400134  RH  096%=      5-min Rain = 0
KMC4 111059Z 10002KT 14/13 A2995 RMK A01 T01400133  RH  096%=      5-min Rain = 0
KMC4 111100Z 10002KT 14/13 A2995 RMK A01 T01400133  RH  095%=      5-min Rain = 0
KMC4 111101Z 10002KT 14/13 A2995 RMK A01 T01400132  RH  095%=      5-min Rain = 0
KMC4 111102Z 10002KT 14/13 A2995 RMK A01 T01400133  RH  096%=      5-min Rain = 0
KMC4 111103Z 10002KT 14/13 A2995 RMK A01 T01400133  RH  096%=      5-min Rain = 0
KMC4 111104Z 10003KT 14/13 A2995 RMK A01 T01400133  RH  096%=      5-min Rain = 0
KMC4 111105Z 10002KT 14/13 A2995 RMK A01 T01400133  RH  096%=      5-min Rain = 0
KMC4 111106Z 10002KT 14/13 A2995 RMK A01 T01400133  RH  096%=      5-min Rain = 0
KMC4 111107Z 09002KT 14/13 A2995 RMK A01 T01390132  RH  095%=      5-min Rain = 0
KMC4 111108Z 09002KT 14/13 A2995 RMK A01 T01390132  RH  096%=      5-min Rain = 0
KMC4 111109Z 08002KT 14/13 A2995 RMK A01 T01390132  RH  096%=      5-min Rain = 0
KMC4 111110Z 07002KT 14/13 A2995 RMK A01 T01390132  RH  096%=      5-min Rain = 0
KMC4 111111Z 05002KT 14/13 A2995 RMK A01 T01390132  RH  096%=      5-min Rain = 0
KMC4 111112Z 05002KT 14/13 A2995 RMK A01 T01380131  RH  096%=      5-min Rain = 0
KMC4 111113Z 05002KT 14/13 A2995 RMK A01 T01390132  RH  096%=      5-min Rain = 0
KMC4 111114Z 06002KT 14/13 A2995 RMK A01 T01390132  RH  096%=      5-min Rain = 0
KMC4 111115Z 05001KT 14/13 A2995 RMK A01 T01380132  RH  096%=      5-min Rain = 0
KMC4 111116Z 04001KT 14/13 A2995 RMK A01 T01380132  RH  096%=      5-min Rain = 0
KMC4 111117Z 03002KT 14/13 A2995 RMK A01 T01390132  RH  096%=      5-min Rain = 0
KMC4 111118Z 02002KT 14/13 A2995 RMK A01 T01390133  RH  096%=      5-min Rain = 0
KMC4 111119Z 02002KT 14/13 A2995 RMK A01 T01390133  RH  096%=      5-min Rain = 0
KMC4 111120Z 02001KT 14/13 A2995 RMK A01 T01390132  RH  095%=      5-min Rain = 0
KMC4 111121Z 01001KT 14/13 A2995 RMK A01 T01390132  RH  095%=      5-min Rain = 0
KMC4 111122Z 01001KT 14/13 A2995 RMK A01 T01390132  RH  095%=      5-min Rain = 0
KMC4 111123Z 01001KT 14/13 A2995 RMK A01 T01390132  RH  095%=      5-min Rain = 0
KMC4 111124Z 01001KT 14/13 A2995 RMK A01 T01390132  RH  095%=      5-min Rain = 0
KMC4 111125Z 01001KT 14/13 A2995 RMK A01 T01390132  RH  095%=      5-min Rain = 0
KMC4 111126Z 02002KT 14/13 A2995 RMK A01 T01390132  RH  095%=      5-min Rain = 0
KMC4 111127Z 02002KT 14/13 A2995 RMK A01 T01390131  RH  095%=      5-min Rain = 0
KMC4 111128Z 02002KT 14/13 A2995 RMK A01 T01390131  RH  095%=      5-min Rain = 0
KMC4 111129Z 02002KT 14/13 A2995 RMK A01 T01380130  RH  095%=      5-min Rain = 0
KMC4 111130Z 02002KT 14/13 A2995 RMK A01 T01380130  RH  095%=      5-min Rain = 0
KMC4 111131Z 02002KT 14/13 A2995 RMK A01 T01380130  RH  095%=      5-min Rain = 0
KMC4 111132Z 02002KT 14/13 A2995 RMK A01 T01380130  RH  095%=      5-min Rain = 0
KMC4 111133Z 01002KT 14/13 A2995 RMK A01 T01380130  RH  095%=      5-min Rain = 0
KMC4 111134Z 02002KT 14/13 A2995 RMK A01 T01380130  RH  095%=      5-min Rain = 0
KMC4 111135Z 03002KT 14/13 A2995 RMK A01 T01370129  RH  095%=      5-min Rain = 0
KMC4 111136Z 02003KT 14/13 A2995 RMK A01 T01370129  RH  095%=      5-min Rain = 0
KMC4 111137Z 02002KT 14/13 A2995 RMK A01 T01370129  RH  095%=      5-min Rain = 0
KMC4 111138Z 03002KT 14/13 A2995 RMK A01 T01380129  RH  095%=      5-min Rain = 0
KMC4 111139Z 04002KT 14/13 A2995 RMK A01 T01370129  RH  095%=      5-min Rain = 0
KMC4 111140Z 03002KT 14/13 A2995 RMK A01 T01370129  RH  095%=      5-min Rain = 0
KMC4 111141Z 03002KT 14/13 A2996 RMK A01 T01370129  RH  095%=      5-min Rain = 0
KMC4 111142Z 02002KT 14/13 A2996 RMK A01 T01370129  RH  095%=      5-min Rain = 0
KMC4 111143Z 03002KT 14/13 A2996 RMK A01 T01370129  RH  095%=      5-min Rain = 0
KMC4 111144Z 04002KT 14/13 A2996 RMK A01 T01370129  RH  095%=      5-min Rain = 0
KMC4 111145Z 03000KT 14/13 A2996 RMK A01 T01370129  RH  095%=      5-min Rain = 0
KMC4 111146Z 03002KT 14/13 A2996 RMK A01 T01370129  RH  095%=      5-min Rain = 0
KMC4 111147Z 03002KT 14/13 A2996 RMK A01 T01370129  RH  095%=      5-min Rain = 0
KMC4 111148Z 03002KT 14/13 A2996 RMK A01 T01370129  RH  095%=      5-min Rain = 0
KMC4 111149Z 02001KT 14/13 A2996 RMK A01 T01370129  RH  095%=      5-min Rain = 0
KMC4 111150Z 02002KT 14/13 A2996 RMK A01 T01380129  RH  094%=      5-min Rain = 0
KMC4 111151Z 03002KT 14/13 A2996 RMK A01 T01380129  RH  094%=      5-min Rain = 0
KMC4 111152Z 05001KT 14/13 A2996 RMK A01 T01380129  RH  094%=      5-min Rain = 0
KMC4 111153Z 00000KT 14/13 A2996 RMK A01 T01380129  RH  094%=      5-min Rain = 0
KMC4 111154Z 00000KT 14/13 A2996 RMK A01 T01380129  RH  094%=      5-min Rain = 0
KMC4 111155Z 14000KT 14/13 A2996 RMK A01 T01380129  RH  094%=      5-min Rain = 0
KMC4 111156Z 16000KT 14/13 A2996 RMK A01 T01390129  RH  094%=      5-min Rain = 0
KMC4 111157Z 00000KT 14/13 A2996 RMK A01 T01390129  RH  094%=      5-min Rain = 0
KMC4 111158Z 00000KT 14/13 A2996 RMK A01 T01390129  RH  094%=      5-min Rain = 0
KMC4 111159Z 00000KT 14/13 A2996 RMK A01 T01390129  RH  094%=      5-min Rain = 0
KMC4 111200Z 00000KT 14/13 A2996 RMK A01 T01390129  RH  094%=      5-min Rain = 0
KMC4 111201Z 00000KT 14/13 A2996 RMK A01 T01390129  RH  094%=      5-min Rain = 0
KMC4 111202Z 00000KT 14/13 A2996 RMK A01 T01380129  RH  094%=      5-min Rain = 0
KMC4 111203Z 00000KT 14/13 A2996 RMK A01 T01380129  RH  094%=      5-min Rain = 0
KMC4 111204Z 00000KT 14/13 A2996 RMK A01 T01380129  RH  094%=      5-min Rain = 0
KMC4 111205Z 00000KT 14/13 A2996 RMK A01 T01380129  RH  094%=      5-min Rain = 0
KMC4 111206Z 00000KT 14/13 A2997 RMK A01 T01380129  RH  094%=      5-min Rain = 0
KMC4 111207Z 00000KT 14/13 A2997 RMK A01 T01380129  RH  095%=      5-min Rain = 0
KMC4 111208Z 00000KT 14/13 A2997 RMK A01 T01380129  RH  095%=      5-min Rain = 0
KMC4 111209Z 00000KT 14/13 A2997 RMK A01 T01380130  RH  095%=      5-min Rain = 0
KMC4 111210Z 18001KT 14/13 A2997 RMK A01 T01380130  RH  095%=      5-min Rain = 0
KMC4 111211Z 18002KT 14/13 A2997 RMK A01 T01380129  RH  095%=      5-min Rain = 0
KMC4 111212Z 19003KT 14/13 A2997 RMK A01 T01380130  RH  095%=      5-min Rain = 0
KMC4 111213Z 20003KT 14/13 A2997 RMK A01 T01380130  RH  095%=      5-min Rain = 0
KMC4 111214Z 20003KT 14/13 A2997 RMK A01 T01370129  RH  095%=      5-min Rain = 0
KMC4 111215Z 20003KT 14/13 A2997 RMK A01 T01370129  RH  095%=      5-min Rain = 0
KMC4 111216Z 20003KT 14/13 A2997 RMK A01 T01370129  RH  095%=      5-min Rain = 0
KMC4 111217Z 20003KT 14/13 A2997 RMK A01 T01370130  RH  096%=      5-min Rain = 0
KMC4 111218Z 19002KT 14/13 A2997 RMK A01 T01370130  RH  096%=      5-min Rain = 0
KMC4 111219Z 18002KT 14/13 A2997 RMK A01 T01370130  RH  096%=      5-min Rain = 0
KMC4 111220Z 17001KT 14/13 A2997 RMK A01 T01370131  RH  096%=      5-min Rain = 0
KMC4 111221Z 17001KT 14/13 A2997 RMK A01 T01370131  RH  096%=      5-min Rain = 0
KMC4 111222Z 17000KT 14/13 A2997 RMK A01 T01370131  RH  096%=      5-min Rain = 0
KMC4 111223Z 00000KT 14/13 A2997 RMK A01 T01370131  RH  096%=      5-min Rain = 0
KMC4 111224Z 10001KT 14/13 A2997 RMK A01 T01360131  RH  096%=      5-min Rain = 0
KMC4 111225Z 12002KT 14/13 A2997 RMK A01 T01370131  RH  096%=      5-min Rain = 0
KMC4 111226Z 12002KT 14/13 A2997 RMK A01 T01370131  RH  096%=      5-min Rain = 0
KMC4 111227Z 12000KT 14/13 A2997 RMK A01 T01360130  RH  096%=      5-min Rain = 0
KMC4 111228Z 00000KT 14/13 A2997 RMK A01 T01360130  RH  096%=      5-min Rain = 0
KMC4 111229Z 00000KT 14/13 A2997 RMK A01 T01360130  RH  096%=      5-min Rain = 0
KMC4 111230Z 12001KT 14/13 A2997 RMK A01 T01360131  RH  096%=      5-min Rain = 0
KMC4 111231Z 11001KT 14/13 A2997 RMK A01 T01360131  RH  096%=      5-min Rain = 0
KMC4 111232Z 10001KT 14/13 A2997 RMK A01 T01360131  RH  097%=      5-min Rain = 0
KMC4 111233Z 06001KT 14/13 A2997 RMK A01 T01360131  RH  097%=      5-min Rain = 0
KMC4 111234Z 04002KT 14/13 A2997 RMK A01 T01370131  RH  097%=      5-min Rain = 0
KMC4 111235Z 04001KT 14/13 A2997 RMK A01 T01370131  RH  097%=      5-min Rain = 0
KMC4 111236Z 04001KT 14/13 A2998 RMK A01 T01370132  RH  097%=      5-min Rain = 0
KMC4 111237Z 03002KT 14/13 A2998 RMK A01 T01370132  RH  097%=      5-min Rain = 0
KMC4 111238Z 03001KT 14/13 A2998 RMK A01 T01370132  RH  097%=      5-min Rain = 0
KMC4 111239Z 02002KT 14/13 A2998 RMK A01 T01370132  RH  097%=      5-min Rain = 0
KMC4 111240Z 02002KT 14/13 A2998 RMK A01 T01380132  RH  097%=      5-min Rain = 0
KMC4 111241Z 02002KT 14/13 A2998 RMK A01 T01370132  RH  097%=      5-min Rain = 0
KMC4 111242Z 02002KT 14/13 A2998 RMK A01 T01370132  RH  097%=      5-min Rain = 0
KMC4 111243Z 01002KT 14/13 A2998 RMK A01 T01380132  RH  097%=      5-min Rain = 0
KMC4 111244Z 01002KT 14/13 A2998 RMK A01 T01380133  RH  097%=      5-min Rain = 0
KMC4 111245Z 01001KT 14/13 A2998 RMK A01 T01380133  RH  096%=      5-min Rain = 0
KMC4 111246Z 01001KT 14/13 A2998 RMK A01 T01380133  RH  096%=      5-min Rain = 0
KMC4 111247Z 01001KT 14/13 A2998 RMK A01 T01380133  RH  096%=      5-min Rain = 0
KMC4 111248Z 01002KT 14/13 A2998 RMK A01 T01380132  RH  096%=      5-min Rain = 0
KMC4 111249Z 01002KT 14/13 A2998 RMK A01 T01380132  RH  096%=      5-min Rain = 0
KMC4 111250Z 02002KT 14/13 A2998 RMK A01 T01390132  RH  096%=      5-min Rain = 0
KMC4 111251Z 02002KT 14/13 A2998 RMK A01 T01390132  RH  096%=      5-min Rain = 0
KMC4 111252Z 02001KT 14/13 A2998 RMK A01 T01390133  RH  096%=      5-min Rain = 0
KMC4 111253Z 02000KT 14/13 A2998 RMK A01 T01390132  RH  095%=      5-min Rain = 0
KMC4 111254Z 00000KT 14/13 A2998 RMK A01 T01400133  RH  095%=      5-min Rain = 0
KMC4 111255Z 00000KT 14/13 A2998 RMK A01 T01400132  RH  095%=      5-min Rain = 0
KMC4 111256Z 21001KT 14/13 A2998 RMK A01 T01400133  RH  095%=      5-min Rain = 0
KMC4 111257Z 21002KT 14/13 A2999 RMK A01 T01400133  RH  095%=      5-min Rain = 0
KMC4 111258Z 20000KT 14/13 A2998 RMK A01 T01400133  RH  095%=      5-min Rain = 0
KMC4 111259Z 00000KT 14/13 A2998 RMK A01 T01400132  RH  095%=      5-min Rain = 0
KMC4 111300Z 00000KT 14/13 A2998 RMK A01 T01400132  RH  095%=      5-min Rain = 0
KMC4 111301Z 00000KT 14/13 A2998 RMK A01 T01400132  RH  095%=      5-min Rain = 0
KMC4 111302Z 00000KT 14/13 A2998 RMK A01 T01390132  RH  095%=      5-min Rain = 0
KMC4 111303Z 00000KT 14/13 A2998 RMK A01 T01390132  RH  095%=      5-min Rain = 0
KMC4 111304Z 00000KT 14/13 A2998 RMK A01 T01390131  RH  095%=      5-min Rain = 0
KMC4 111305Z 20001KT 14/13 A2998 RMK A01 T01380132  RH  096%=      5-min Rain = 0
KMC4 111306Z 20002KT 14/13 A2999 RMK A01 T01380132  RH  096%=      5-min Rain = 0
KMC4 111307Z 20002KT 14/13 A2999 RMK A01 T01380132  RH  096%=      5-min Rain = 0
KMC4 111308Z 18001KT 14/13 A2998 RMK A01 T01390132  RH  096%=      5-min Rain = 0
KMC4 111309Z 00000KT 14/13 A2999 RMK A01 T01390132  RH  096%=      5-min Rain = 0
KMC4 111310Z 15001KT 14/13 A2999 RMK A01 T01380132  RH  096%=      5-min Rain = 0
KMC4 111311Z 16003KT 14/13 A2999 RMK A01 T01380132  RH  096%=      5-min Rain = 0
KMC4 111312Z 20002KT 14/13 A2999 RMK A01 T01380132  RH  096%=      5-min Rain = 0
KMC4 111313Z 17002KT 14/13 A2999 RMK A01 T01390133  RH  096%=      5-min Rain = 0
KMC4 111314Z 15007KT 14/13 A2998 RMK A01 T01380133  RH  096%=      5-min Rain = 0
KMC4 111315Z 16006KT 14/13 A2998 RMK A01 T01380132  RH  096%=      5-min Rain = 0
KMC4 111316Z 18003KT 14/13 A2999 RMK A01 T01380132  RH  096%=      5-min Rain = 0
KMC4 111317Z 16002KT 14/13 A2998 RMK A01 T01380133  RH  096%=      5-min Rain = 0
KMC4 111318Z 14003KT 14/13 A2998 RMK A01 T01380132  RH  096%=      5-min Rain = 0
KMC4 111319Z 13003KT 14/13 A2998 RMK A01 T01380132  RH  096%=      5-min Rain = 0
KMC4 111320Z 13003KT 14/13 A2998 RMK A01 T01370131  RH  096%=      5-min Rain = 0
KMC4 111321Z 13002KT 14/13 A2998 RMK A01 T01370131  RH  096%=      5-min Rain = 0
KMC4 111322Z 12002KT 14/13 A2998 RMK A01 T01370131  RH  096%=      5-min Rain = 0
KMC4 111323Z 10003KT 14/13 A2998 RMK A01 T01370131  RH  097%=      5-min Rain = 0
KMC4 111324Z 10002KT 14/13 A2998 RMK A01 T01370131  RH  097%=      5-min Rain = 0
KMC4 111325Z 13002KT 14/13 A2998 RMK A01 T01370132  RH  097%=      5-min Rain = 0
KMC4 111326Z 14002KT 14/13 A2998 RMK A01 T01360131  RH  097%=      5-min Rain = 0
KMC4 111327Z 14002KT 14/13 A2998 RMK A01 T01370132  RH  097%=      5-min Rain = 0
KMC4 111328Z 14002KT 14/13 A2998 RMK A01 T01370132  RH  097%=      5-min Rain = 0
KMC4 111329Z 14001KT 14/13 A2999 RMK A01 T01370132  RH  097%=      5-min Rain = 0
KMC4 111330Z 14000KT 14/13 A2999 RMK A01 T01380132  RH  096%=      5-min Rain = 0
KMC4 111331Z 14000KT 14/13 A2999 RMK A01 T01370132  RH  096%=      5-min Rain = 0
KMC4 111332Z 12001KT 14/13 A2999 RMK A01 T01380132  RH  096%=      5-min Rain = 0
KMC4 111333Z 10001KT 14/13 A2999 RMK A01 T01380131  RH  096%=      5-min Rain = 0
KMC4 111334Z 08001KT 14/13 A2999 RMK A01 T01370131  RH  096%=      5-min Rain = 0
KMC4 111335Z 10002KT 14/13 A2999 RMK A01 T01380132  RH  096%=      5-min Rain = 0
KMC4 111336Z 11002KT 14/13 A2999 RMK A01 T01380132  RH  096%=      5-min Rain = 0
KMC4 111337Z 11001KT 14/13 A2999 RMK A01 T01380131  RH  096%=      5-min Rain = 0
KMC4 111338Z 11001KT 14/13 A2999 RMK A01 T01380132  RH  096%=      5-min Rain = 0
KMC4 111339Z 00000KT 14/13 A2999 RMK A01 T01380132  RH  096%=      5-min Rain = 0
KMC4 111340Z 00000KT 14/13 A2999 RMK A01 T01380132  RH  096%=      5-min Rain = 0
KMC4 111341Z 12001KT 14/13 A2999 RMK A01 T01380132  RH  096%=      5-min Rain = 0
KMC4 111342Z 13003KT 14/13 A2999 RMK A01 T01380132  RH  096%=      5-min Rain = 0
KMC4 111343Z 14004KT 14/13 A2999 RMK A01 T01390132  RH  096%=      5-min Rain = 0
KMC4 111344Z 15004KT 14/13 A2999 RMK A01 T01390133  RH  096%=      5-min Rain = 0
KMC4 111345Z 15004KT 14/13 A2999 RMK A01 T01390132  RH  096%=      5-min Rain = 0
KMC4 111346Z 15003KT 14/13 A2999 RMK A01 T01390133  RH  096%=      5-min Rain = 0
KMC4 111347Z 15002KT 14/13 A2999 RMK A01 T01390132  RH  096%=      5-min Rain = 0
KMC4 111348Z 12001KT 14/13 A2999 RMK A01 T01390132  RH  096%=      5-min Rain = 0
KMC4 111349Z 13003KT 14/13 A30 RMK A01 T01390133  RH  096%=      5-min Rain = 0
KMC4 111350Z 15004KT 14/13 A30 RMK A01 T01390132  RH  096%=      5-min Rain = 0
KMC4 111351Z 16004KT 14/13 A30 RMK A01 T01390132  RH  096%=      5-min Rain = 0
KMC4 111352Z 17004KT 14/13 A30 RMK A01 T01390132  RH  096%=      5-min Rain = 0
KMC4 111353Z 18005KT 14/13 A30 RMK A01 T01400133  RH  096%=      5-min Rain = 0
KMC4 111354Z 19006KT 14/13 A30 RMK A01 T01410134  RH  096%=      5-min Rain = 0
KMC4 111355Z 19006KT 14/13 A3001 RMK A01 T01420134  RH  095%=      5-min Rain = 0
KMC4 111356Z 18008KT 14/14 A3001 RMK A01 T01420135  RH  095%=      5-min Rain = 0
KMC4 111357Z 18007KT 14/14 A3001 RMK A01 T01420135  RH  095%=      5-min Rain = 0
KMC4 111358Z 17006KT 14/14 A3001 RMK A01 T01420135  RH  095%=      5-min Rain = 0
KMC4 111359Z 17006KT 14/14 A3001 RMK A01 T01430136  RH  096%=      5-min Rain = 0
KMC4 111400Z 17006KT 14/14 A3001 RMK A01 T01440136  RH  095%=      5-min Rain = 0
KMC4 111401Z 17008KT 14/14 A3002 RMK A01 T01440137  RH  095%=      5-min Rain = 0
KMC4 111402Z 16010KT 15/14 A3002 RMK A01 T01460138  RH  095%=      5-min Rain = 0
KMC4 111403Z 16007KT 15/14 A3002 RMK A01 T01470138  RH  095%=      5-min Rain = 0
KMC4 111404Z 16008KT 15/14 A3002 RMK A01 T01470138  RH  094%=      5-min Rain = 0
KMC4 111405Z 17008KT 15/14 A3002 RMK A01 T01480138  RH  094%=      5-min Rain = 0
KMC4 111406Z 17007KT 15/14 A3002 RMK A01 T01480138  RH  094%=      5-min Rain = 0
KMC4 111407Z 18008KT 15/14 A3002 RMK A01 T01480138  RH  094%=      5-min Rain = 0
KMC4 111408Z 18008KT 15/14 A3002 RMK A01 T01480138  RH  094%=      5-min Rain = 0
KMC4 111409Z 18006KT 15/14 A3003 RMK A01 T01480138  RH  094%=      5-min Rain = 0
KMC4 111410Z 17007KT 15/14 A3003 RMK A01 T01480138  RH  094%=      5-min Rain = 0
KMC4 111411Z 18006KT 15/14 A3003 RMK A01 T01480138  RH  094%=      5-min Rain = 0
KMC4 111412Z 18007KT 15/14 A3003 RMK A01 T01480139  RH  094%=      5-min Rain = 0
KMC4 111413Z 18006KT 15/14 A3003 RMK A01 T01480139  RH  094%=      5-min Rain = 0
KMC4 111414Z 18007KT 15/14 A3003 RMK A01 T01470139  RH  095%=      5-min Rain = 0
KMC4 111415Z 18008KT 15/14 A3003 RMK A01 T01470139  RH  095%=      5-min Rain = 0
KMC4 111416Z 18007KT 15/14 A3004 RMK A01 T01470139  RH  095%=      5-min Rain = 0
KMC4 111417Z 17007KT 15/14 A3004 RMK A01 T01470139  RH  095%=      5-min Rain = 0
KMC4 111418Z 17007KT 15/14 A3004 RMK A01 T01470139  RH  095%=      5-min Rain = 0
KMC4 111419Z 16006KT 15/14 A3004 RMK A01 T01470139  RH  095%=      5-min Rain = 0
KMC4 111420Z 16006KT 15/14 A3004 RMK A01 T01470139  RH  095%=      5-min Rain = 0
KMC4 111421Z 15006KT 15/14 A3004 RMK A01 T01470139  RH  095%=      5-min Rain = 0
KMC4 111422Z 14005KT 15/14 A3004 RMK A01 T01470139  RH  095%=      5-min Rain = 0
KMC4 111423Z 14007KT 15/14 A3004 RMK A01 T01470139  RH  095%=      5-min Rain = 0
KMC4 111424Z 12006KT 15/14 A3004 RMK A01 T01470139  RH  095%=      5-min Rain = 0
KMC4 111425Z 10005KT 15/14 A3005 RMK A01 T01470139  RH  095%=      5-min Rain = 0
KMC4 111426Z 08005KT 15/14 A3005 RMK A01 T01480139  RH  095%=      5-min Rain = 0
KMC4 111427Z 08004KT 15/14 A3005 RMK A01 T01480139  RH  095%=      5-min Rain = 0
KMC4 111428Z 09005KT 15/14 A3005 RMK A01 T01480139  RH  095%=      5-min Rain = 0
KMC4 111429Z 08004KT 15/14 A3005 RMK A01 T01480139  RH  095%=      5-min Rain = 0
KMC4 111430Z 06005KT 15/14 A3005 RMK A01 T01480140  RH  095%=      5-min Rain = 0
KMC4 111431Z 07005KT 15/14 A3005 RMK A01 T01480139  RH  094%=      5-min Rain = 0
KMC4 111432Z 06005KT 15/14 A3005 RMK A01 T01480139  RH  094%=      5-min Rain = 0
KMC4 111433Z 04008KT 15/14 A3005 RMK A01 T01490139  RH  094%=      5-min Rain = 0
KMC4 111434Z 02010KT 15/14 A3006 RMK A01 T01490139  RH  094%=      5-min Rain = 0
KMC4 111435Z 02006KT 15/14 A3006 RMK A01 T01490140  RH  094%=      5-min Rain = 0
KMC4 111436Z 02009KT 15/14 A3006 RMK A01 T01490139  RH  094%=      5-min Rain = 0
KMC4 111437Z 02010KT 15/14 A3006 RMK A01 T01490139  RH  094%=      5-min Rain = 0
KMC4 111438Z 03011KT 15/14 A3006 RMK A01 T01490139  RH  094%=      5-min Rain = 0
KMC4 111439Z 04008KT 15/14 A3005 RMK A01 T01480139  RH  094%=      5-min Rain = 0
KMC4 111440Z 03008KT 15/14 A3005 RMK A01 T01490139  RH  094%=      5-min Rain = 0
KMC4 111441Z 02007KT 15/14 A3006 RMK A01 T01510140  RH  093%=      5-min Rain = 0
KMC4 111442Z 03008KT 15/14 A3006 RMK A01 T01510139  RH  093%=      5-min Rain = 0
KMC4 111443Z 02008KT 15/14 A3006 RMK A01 T01510139  RH  093%=      5-min Rain = 0
KMC4 111444Z 02006KT 15/14 A3006 RMK A01 T01510139  RH  093%=      5-min Rain = 0
KMC4 111445Z 02006KT 15/14 A3006 RMK A01 T01510139  RH  093%=      5-min Rain = 0
KMC4 111446Z 02006KT 15/14 A3007 RMK A01 T01510139  RH  093%=      5-min Rain = 0
KMC4 111447Z 02006KT 15/14 A3007 RMK A01 T01520140  RH  093%=      5-min Rain = 0
KMC4 111448Z 01007KT 15/14 A3007 RMK A01 T01520140  RH  092%=      5-min Rain = 0
KMC4 111449Z 00006KT 15/14 A3007 RMK A01 T01530139  RH  091%=      5-min Rain = 0
KMC4 111450Z 00007KT 15/14 A3007 RMK A01 T01540140  RH  091%=      5-min Rain = 0
KMC4 111451Z 01007KT 16/14 A3008 RMK A01 T01550140  RH  090%=      5-min Rain = 0
KMC4 111452Z 01007KT 16/14 A3008 RMK A01 T01570140  RH  090%=      5-min Rain = 0
KMC4 111453Z 02006KT 16/14 A3008 RMK A01 T01580140  RH  089%=      5-min Rain = 0
KMC4 111454Z 02007KT 16/14 A3008 RMK A01 T01590140  RH  088%=      5-min Rain = 0
KMC4 111455Z 03007KT 16/14 A3008 RMK A01 T01600140  RH  088%=      5-min Rain = 0
KMC4 111456Z 02009KT 16/14 A3009 RMK A01 T01610139  RH  087%=      5-min Rain = 0
KMC4 111457Z 01008KT 16/14 A3009 RMK A01 T01630138  RH  085%=      5-min Rain = 0
KMC4 111458Z 02007KT 16/14 A3009 RMK A01 T01640136  RH  084%=      5-min Rain = 0
KMC4 111459Z 02007KT 17/14 A3009 RMK A01 T01650136  RH  083%=      5-min Rain = 0
KMC4 111500Z 02010KT 17/14 A301 RMK A01 T01660135  RH  082%=      5-min Rain = 0
KMC4 111501Z 02011G17KT 17/13 A301 RMK A01 T01660132  RH  080%=      5-min Rain = 0
KMC4 111502Z 02013KT 17/13 A301 RMK A01 T01660129  RH  079%=      5-min Rain = 0
KMC4 111503Z 01011KT 17/13 A301 RMK A01 T01650128  RH  078%=      5-min Rain = 0
KMC4 111504Z 01012KT 16/13 A301 RMK A01 T01640127  RH  079%=      5-min Rain = 0
KMC4 111505Z 01016G21KT 16/13 A3011 RMK A01 T01640125  RH  078%=      5-min Rain = 0
KMC4 111506Z 00014KT 16/12 A3011 RMK A01 T01630124  RH  078%=      5-min Rain = 0
KMC4 111507Z 01012KT 16/12 A3012 RMK A01 T01610122  RH  078%=      5-min Rain = 0
KMC4 111508Z 02014KT 16/12 A3012 RMK A01 T01610122  RH  078%=      5-min Rain = 0
KMC4 111509Z 02012KT 16/12 A3012 RMK A01 T01590122  RH  078%=      5-min Rain = 0
KMC4 111510Z 02011KT 16/12 A3012 RMK A01 T01590122  RH  079%=      5-min Rain = 0
KMC4 111511Z 02012KT 16/12 A3012 RMK A01 T01580121  RH  079%=      5-min Rain = 0
KMC4 111512Z 02011KT 16/12 A3012 RMK A01 T01580122  RH  079%=      5-min Rain = 0
KMC4 111513Z 02009KT 16/12 A3012 RMK A01 T01580121  RH  079%=      5-min Rain = 0
KMC4 111514Z 01015G21KT 16/12 A3012 RMK A01 T01570119  RH  078%=      5-min Rain = 0
KMC4 111515Z 02012G17KT 16/11 A3013 RMK A01 T01550111  RH  075%=      5-min Rain = 0
KMC4 111516Z 01014KT 15/10 A3013 RMK A01 T01520104  RH  073%=      5-min Rain = 0
KMC4 111517Z 01014G19KT 15/09 A3013 RMK A01 T01480093  RH  070%=      5-min Rain = 0
KMC4 111518Z 02016KT 15/09 A3013 RMK A01 T01460094  RH  071%=      5-min Rain = 0
KMC4 111519Z 02015KT 14/09 A3013 RMK A01 T01440092  RH  071%=      5-min Rain = 0
KMC4 111520Z 02013KT 14/09 A3013 RMK A01 T01430090  RH  071%=      5-min Rain = 0
KMC4 111521Z 02013KT 14/09 A3013 RMK A01 T01420092  RH  072%=      5-min Rain = 0
KMC4 111522Z 02014KT 14/09 A3014 RMK A01 T01410090  RH  071%=      5-min Rain = 0
KMC4 111523Z 02014KT 14/09 A3014 RMK A01 T01390086  RH  070%=      5-min Rain = 0
KMC4 111524Z 02015G20KT 14/09 A3014 RMK A01 T01370085  RH  071%=      5-min Rain = 0
KMC4 111525Z 02015G21KT 14/08 A3015 RMK A01 T01350082  RH  070%=      5-min Rain = 0
KMC4 111526Z 02018G23KT 13/08 A3015 RMK A01 T01340080  RH  070%=      5-min Rain = 0
KMC4 111527Z 02016KT 13/08 A3015 RMK A01 T01320079  RH  070%=      5-min Rain = 0
KMC4 111528Z 03018KT 13/08 A3015 RMK A01 T01320079  RH  071%=      5-min Rain = 0
KMC4 111529Z 03013KT 13/08 A3015 RMK A01 T01310080  RH  071%=      5-min Rain = 0
KMC4 111530Z 04013KT 13/08 A3015 RMK A01 T01300081  RH  072%=      5-min Rain = 0
KMC4 111531Z 03011G16KT 13/08 A3015 RMK A01 T01300083  RH  073%=      5-min Rain = 0
KMC4 111532Z 03013KT 13/08 A3015 RMK A01 T01290083  RH  073%=      5-min Rain = 0
KMC4 111533Z 03014KT 13/08 A3015 RMK A01 T01290081  RH  072%=      5-min Rain = 0
KMC4 111534Z 03019G28KT 13/08 A3015 RMK A01 T01280080  RH  072%=      5-min Rain = 0
KMC4 111535Z 03018G24KT 13/08 A3015 RMK A01 T01260077  RH  072%=      5-min Rain = 0
KMC4 111536Z 02018G24KT 12/08 A3015 RMK A01 T01240078  RH  073%=      5-min Rain = 0
KMC4 111537Z 03020G26KT 12/08 A3016 RMK A01 T01240078  RH  074%=      5-min Rain = 0
KMC4 111538Z 03017G22KT 12/08 A3016 RMK A01 T01230076  RH  073%=      5-min Rain = 0
KMC4 111539Z 02015KT 12/08 A3016 RMK A01 T01220078  RH  075%=      5-min Rain = 0
KMC4 111540Z 02012KT 12/08 A3017 RMK A01 T01220079  RH  075%=      5-min Rain = 0
KMC4 111541Z 02011KT 12/08 A3017 RMK A01 T01220080  RH  076%=      5-min Rain = 0
KMC4 111542Z 03014KT 12/08 A3017 RMK A01 T01220081  RH  076%=      5-min Rain = 0
KMC4 111543Z 02012KT 12/08 A3017 RMK A01 T01220080  RH  075%=      5-min Rain = 0
KMC4 111544Z 02011KT 12/08 A3017 RMK A01 T01220081  RH  076%=      5-min Rain = 0
KMC4 111545Z 01010KT 12/08 A3017 RMK A01 T01210081  RH  076%=      5-min Rain = 0
KMC4 111546Z 02011KT 12/08 A3017 RMK A01 T01210081  RH  076%=      5-min Rain = 0
KMC4 111547Z 04017G22KT 12/08 A3017 RMK A01 T01220080  RH  076%=      5-min Rain = 0
KMC4 111548Z 03013G18KT 12/08 A3017 RMK A01 T01210079  RH  075%=      5-min Rain = 0
KMC4 111549Z 04012KT 12/08 A3017 RMK A01 T01200079  RH  076%=      5-min Rain = 0
KMC4 111550Z 04010KT 12/08 A3017 RMK A01 T01200081  RH  077%=      5-min Rain = 0
KMC4 111551Z 03013KT 12/08 A3017 RMK A01 T01200082  RH  077%=      5-min Rain = 0
KMC4 111552Z 04015KT 12/08 A3017 RMK A01 T01210081  RH  077%=      5-min Rain = 0
KMC4 111553Z 03014KT 12/08 A3017 RMK A01 T01210083  RH  078%=      5-min Rain = 0
KMC4 111554Z 04013G19KT 12/08 A3017 RMK A01 T01210084  RH  078%=      5-min Rain = 0
KMC4 111555Z 04016KT 12/08 A3017 RMK A01 T01210083  RH  078%=      5-min Rain = 0
KMC4 111556Z 03018KT 12/08 A3017 RMK A01 T01200083  RH  078%=      5-min Rain = 0
KMC4 111557Z 04019KT 12/08 A3017 RMK A01 T01200083  RH  078%=      5-min Rain = 0
KMC4 111558Z 03018KT 12/08 A3017 RMK A01 T01200083  RH  078%=      5-min Rain = 0
KMC4 111559Z 03015KT 12/08 A3017 RMK A01 T01190084  RH  079%=      5-min Rain = 0
KMC4 111600Z 04019KT 12/08 A3016 RMK A01 T01190083  RH  079%=      5-min Rain = 0
KMC4 111601Z 04019KT 12/08 A3016 RMK A01 T01190083  RH  078%=      5-min Rain = 0
KMC4 111602Z 03016G24KT 12/08 A3017 RMK A01 T01190084  RH  079%=      5-min Rain = 0
KMC4 111603Z 04015G22KT 12/08 A3017 RMK A01 T01190084  RH  079%=      5-min Rain = 0
KMC4 111604Z 04015G20KT 12/09 A3017 RMK A01 T01190085  RH  080%=      5-min Rain = 0
KMC4 111605Z 04017KT 12/08 A3017 RMK A01 T01190084  RH  079%=      5-min Rain = 0
KMC4 111606Z 04014KT 12/09 A3017 RMK A01 T01190085  RH  080%=      5-min Rain = 0
KMC4 111607Z 03014KT 12/09 A3017 RMK A01 T01190085  RH  080%=      5-min Rain = 0
KMC4 111608Z 03015G22KT 12/09 A3017 RMK A01 T01190085  RH  080%=      5-min Rain = 0
KMC4 111609Z 04020G26KT 12/08 A3017 RMK A01 T01190084  RH  079%=      5-min Rain = 0
KMC4 111610Z 03019KT 12/08 A3017 RMK A01 T01190084  RH  079%=      5-min Rain = 0
KMC4 111611Z 03016KT 12/08 A3017 RMK A01 T01190084  RH  079%=      5-min Rain = 0
KMC4 111612Z 03014G19KT 12/08 A3017 RMK A01 T01190084  RH  079%=      5-min Rain = 0.01
KMC4 111613Z 02019G24KT 12/09 A3017 RMK A01 T01190085  RH  080%=      5-min Rain = 0
KMC4 111614Z 02017G22KT 12/08 A3017 RMK A01 T01190083  RH  079%=      5-min Rain = 0
KMC4 111615Z 03018KT 12/08 A3017 RMK A01 T01190084  RH  079%=      5-min Rain = 0
KMC4 111616Z 03017G25KT 12/08 A3017 RMK A01 T01190084  RH  079%=      5-min Rain = 0
KMC4 111617Z 03019G26KT 12/08 A3017 RMK A01 T01190083  RH  078%=      5-min Rain = 0
KMC4 111618Z 03023G29KT 12/08 A3017 RMK A01 T01190082  RH  078%=      5-min Rain = 0
KMC4 111619Z 04019KT 12/08 A3018 RMK A01 T01190082  RH  078%=      5-min Rain = 0
KMC4 111620Z 04021G26KT 12/08 A3018 RMK A01 T01190082  RH  078%=      5-min Rain = 0
KMC4 111621Z 04019G24KT 12/08 A3018 RMK A01 T01190080  RH  077%=      5-min Rain = 0
KMC4 111622Z 02017G23KT 12/08 A3018 RMK A01 T01190080  RH  077%=      5-min Rain = 0
KMC4 111623Z 04013KT 12/08 A3018 RMK A01 T01190082  RH  078%=      5-min Rain = 0
KMC4 111624Z 04017KT 12/08 A3018 RMK A01 T01190082  RH  078%=      5-min Rain = 0
KMC4 111625Z 03018G27KT 12/08 A3019 RMK A01 T01190080  RH  077%=      5-min Rain = 0
KMC4 111626Z 03017KT 12/08 A3018 RMK A01 T01190079  RH  076%=      5-min Rain = 0
KMC4 111627Z 03017KT 12/08 A3019 RMK A01 T01190078  RH  076%=      5-min Rain = 0
KMC4 111628Z 03015G20KT 12/08 A3019 RMK A01 T01190078  RH  076%=      5-min Rain = 0
KMC4 111629Z 03017KT 12/08 A3019 RMK A01 T01190078  RH  076%=      5-min Rain = 0
KMC4 111630Z 03016KT 12/08 A3019 RMK A01 T01180077  RH  076%=      5-min Rain = 0
KMC4 111631Z 04018KT 12/08 A3019 RMK A01 T01180076  RH  076%=      5-min Rain = 0
KMC4 111632Z 03016G21KT 12/08 A3019 RMK A01 T01170076  RH  076%=      5-min Rain = 0
KMC4 111633Z 04014KT 12/08 A3019 RMK A01 T01170076  RH  076%=      5-min Rain = 0
KMC4 111634Z 03019G24KT 12/08 A3019 RMK A01 T01170076  RH  076%=      5-min Rain = 0
KMC4 111635Z 03017KT 12/08 A302 RMK A01 T01170075  RH  075%=      5-min Rain = 0
KMC4 111636Z 03020G26KT 12/08 A302 RMK A01 T01160075  RH  076%=      5-min Rain = 0
KMC4 111637Z 03024G30KT 12/07 A302 RMK A01 T01150074  RH  076%=      5-min Rain = 0
KMC4 111638Z 03017KT 11/07 A302 RMK A01 T01140074  RH  076%=      5-min Rain = 0
KMC4 111639Z 03019KT 11/08 A302 RMK A01 T01140075  RH  077%=      5-min Rain = 0
KMC4 111640Z 03019KT 11/07 A3021 RMK A01 T01140074  RH  076%=      5-min Rain = 0
KMC4 111641Z 04021G26KT 11/07 A3021 RMK A01 T01130072  RH  076%=      5-min Rain = 0
KMC4 111642Z 04019G24KT 11/07 A3021 RMK A01 T01120072  RH  076%=      5-min Rain = 0
KMC4 111643Z 04016KT 11/07 A3021 RMK A01 T01120072  RH  077%=      5-min Rain = 0
KMC4 111644Z 04018G25KT 11/07 A3021 RMK A01 T01120072  RH  076%=      5-min Rain = 0
KMC4 111645Z 03018KT 11/07 A3021 RMK A01 T01120072  RH  076%=      5-min Rain = 0
KMC4 111646Z 04017KT 11/07 A3021 RMK A01 T01120071  RH  076%=      5-min Rain = 0
KMC4 111647Z 04019G24KT 11/07 A3021 RMK A01 T01120070  RH  076%=      5-min Rain = 0
KMC4 111648Z 04018G27KT 11/07 A3021 RMK A01 T01110070  RH  076%=      5-min Rain = 0
KMC4 111649Z 04022KT 11/07 A3021 RMK A01 T01110070  RH  076%=      5-min Rain = 0
KMC4 111650Z 03017KT 11/07 A3021 RMK A01 T01100069  RH  075%=      5-min Rain = 0
KMC4 111651Z 04017G22KT 11/07 A3021 RMK A01 T01100069  RH  076%=      5-min Rain = 0
KMC4 111652Z 04021G29KT 11/07 A3021 RMK A01 T01100069  RH  075%=      5-min Rain = 0
KMC4 111653Z 04021G27KT 11/07 A3021 RMK A01 T01090067  RH  075%=      5-min Rain = 0
KMC4 111654Z 03021G28KT 11/07 A3021 RMK A01 T01080066  RH  075%=      5-min Rain = 0
KMC4 111655Z 03018G24KT 11/07 A3021 RMK A01 T01070065  RH  075%=      5-min Rain = 0
KMC4 111656Z 03020KT 11/07 A3021 RMK A01 T01070066  RH  075%=      5-min Rain = 0
KMC4 111657Z 03017KT 11/07 A3022 RMK A01 T01070066  RH  075%=      5-min Rain = 0
KMC4 111658Z 03019G24KT 11/07 A3021 RMK A01 T01070065  RH  075%=      5-min Rain = 0
KMC4 111659Z 03021G27KT 11/06 A3021 RMK A01 T01070064  RH  075%=      5-min Rain = 0
KMC4 111700Z 02019G24KT 11/06 A3021 RMK A01 T01060063  RH  074%=      5-min Rain = 0
KMC4 111701Z 03019KT 11/06 A3021 RMK A01 T01060063  RH  075%=      5-min Rain = 0
KMC4 111702Z 03016G21KT 11/06 A3021 RMK A01 T01060064  RH  075%=      5-min Rain = 0
KMC4 111703Z 04018G23KT 11/06 A3021 RMK A01 T01060063  RH  075%=      5-min Rain = 0
KMC4 111704Z 04017KT 11/06 A3021 RMK A01 T01060062  RH  074%=      5-min Rain = 0
KMC4 111705Z 04015KT 11/06 A3022 RMK A01 T01060063  RH  075%=      5-min Rain = 0
KMC4 111706Z 04019KT 11/06 A3022 RMK A01 T01060062  RH  074%=      5-min Rain = 0
KMC4 111707Z 04018G25KT 11/06 A3022 RMK A01 T01060061  RH  074%=      5-min Rain = 0
KMC4 111708Z 03023G31KT 11/06 A3022 RMK A01 T01050059  RH  073%=      5-min Rain = 0
KMC4 111709Z 03024G31KT 10/06 A3022 RMK A01 T01030055  RH  072%=      5-min Rain = 0
KMC4 111710Z 04016KT 10/05 A3022 RMK A01 T01010054  RH  073%=      5-min Rain = 0
KMC4 111711Z 04019G26KT 10/06 A3022 RMK A01 T01010055  RH  073%=      5-min Rain = 0
KMC4 111712Z 03023G29KT 10/05 A3022 RMK A01 T01010054  RH  072%=      5-min Rain = 0
KMC4 111713Z 04023G28KT 10/05 A3022 RMK A01 T01010052  RH  072%=      5-min Rain = 0
KMC4 111714Z 04016G21KT 10/05 A3022 RMK A01 T01000052  RH  072%=      5-min Rain = 0
KMC4 111715Z 03022G28KT 10/05 A3022 RMK A01 T01010052  RH  072%=      5-min Rain = 0
KMC4 111716Z 03022G29KT 10/05 A3022 RMK A01 T01000051  RH  071%=      5-min Rain = 0
KMC4 111717Z 03019G24KT 10/05 A3022 RMK A01 T00990049  RH  071%=      5-min Rain = 0
KMC4 111718Z 03017KT 10/05 A3023 RMK A01 T00980049  RH  072%=      5-min Rain = 0
KMC4 111719Z 02016KT 10/05 A3023 RMK A01 T00980050  RH  072%=      5-min Rain = 0
KMC4 111720Z 02017G22KT 10/05 A3023 RMK A01 T00990051  RH  072%=      5-min Rain = 0
KMC4 111721Z 02014G20KT 10/05 A3023 RMK A01 T00990049  RH  071%=      5-min Rain = 0
KMC4 111722Z 02018G23KT 10/05 A3023 RMK A01 T00980048  RH  071%=      5-min Rain = 0
KMC4 111723Z 03020KT 10/05 A3023 RMK A01 T00970046  RH  071%=      5-min Rain = 0
KMC4 111724Z 02020KT 09/04 A3024 RMK A01 T00940044  RH  071%=      5-min Rain = 0
KMC4 111725Z 02019G27KT 09/04 A3024 RMK A01 T00930043  RH  071%=      5-min Rain = 0
KMC4 111726Z 02018KT 09/04 A3024 RMK A01 T00920043  RH  071%=      5-min Rain = 0
KMC4 111727Z 03019KT 09/04 A3024 RMK A01 T00920043  RH  071%=      5-min Rain = 0
KMC4 111728Z 03019G27KT 09/04 A3024 RMK A01 T00910041  RH  071%=      5-min Rain = 0
KMC4 111729Z 03019G26KT 09/04 A3024 RMK A01 T00910041  RH  071%=      5-min Rain = 0
KMC4 111730Z 04017KT 09/04 A3024 RMK A01 T00910039  RH  070%=      5-min Rain = 0
KMC4 111731Z 03018G25KT 09/04 A3024 RMK A01 T00910038  RH  070%=      5-min Rain = 0
KMC4 111732Z 04023G28KT 09/04 A3024 RMK A01 T00910038  RH  070%=      5-min Rain = 0
KMC4 111733Z 04020G28KT 09/04 A3025 RMK A01 T00890035  RH  069%=      5-min Rain = 0
KMC4 111734Z 04022G28KT 09/03 A3025 RMK A01 T00870033  RH  069%=      5-min Rain = 0
KMC4 111735Z 04020G27KT 09/03 A3025 RMK A01 T00860034  RH  070%=      5-min Rain = 0
KMC4 111736Z 03018G27KT 09/03 A3025 RMK A01 T00850034  RH  070%=      5-min Rain = 0
KMC4 111737Z 02024KT 09/03 A3025 RMK A01 T00850034  RH  070%=      5-min Rain = 0
KMC4 111738Z 03020G26KT 08/03 A3025 RMK A01 T00820032  RH  071%=      5-min Rain = 0
KMC4 111739Z 04023KT 08/03 A3025 RMK A01 T00810033  RH  072%=      5-min Rain = 0
KMC4 111740Z 03019G24KT 08/03 A3025 RMK A01 T00800034  RH  072%=      5-min Rain = 0
KMC4 111741Z 03015G20KT 08/04 A3026 RMK A01 T00800035  RH  073%=      5-min Rain = 0
KMC4 111742Z 04017KT 08/04 A3026 RMK A01 T00820036  RH  073%=      5-min Rain = 0
KMC4 111743Z 04025G33KT 08/03 A3025 RMK A01 T00820034  RH  072%=      5-min Rain = 0
KMC4 111744Z 02020G29KT 08/03 A3025 RMK A01 T00770028  RH  071%=      5-min Rain = 0
KMC4 111745Z 03020G27KT 08/03 A3026 RMK A01 T00750030  RH  073%=      5-min Rain = 0
KMC4 111746Z 02018G24KT 08/03 A3026 RMK A01 T00750029  RH  072%=      5-min Rain = 0
KMC4 111747Z 03020G26KT 08/03 A3026 RMK A01 T00750029  RH  073%=      5-min Rain = 0
KMC4 111748Z 03020G30KT 07/03 A3027 RMK A01 T00730028  RH  073%=      5-min Rain = 0
KMC4 111749Z 02021G30KT 07/03 A3027 RMK A01 T00720026  RH  073%=      5-min Rain = 0
KMC4 111750Z 03022G27KT 07/03 A3027 RMK A01 T00710026  RH  073%=      5-min Rain = 0
KMC4 111751Z 03021G26KT 07/03 A3027 RMK A01 T00700026  RH  074%=      5-min Rain = 0
KMC4 111752Z 04022KT 07/03 A3027 RMK A01 T00690025  RH  073%=      5-min Rain = 0
KMC4 111753Z 03023G28KT 07/02 A3027 RMK A01 T00670024  RH  074%=      5-min Rain = 0
KMC4 111754Z 03019KT 07/02 A3028 RMK A01 T00660024  RH  074%=      5-min Rain = 0
KMC4 111755Z 02018G23KT 07/03 A3028 RMK A01 T00670025  RH  075%=      5-min Rain = 0
KMC4 111756Z 04020G27KT 07/03 A3028 RMK A01 T00670025  RH  075%=      5-min Rain = 0
KMC4 111757Z 03024G29KT 07/03 A3028 RMK A01 T00670025  RH  075%=      5-min Rain = 0
KMC4 111758Z 03023G29KT 07/02 A3028 RMK A01 T00650023  RH  074%=      5-min Rain = 0
KMC4 111759Z 04022KT 06/02 A3028 RMK A01 T00640022  RH  075%=      5-min Rain = 0
KMC4 111800Z 03022G29KT 06/02 A3029 RMK A01 T00640022  RH  075%=      5-min Rain = 0
KMC4 111801Z 04024KT 06/02 A3029 RMK A01 T00620021  RH  075%=      5-min Rain = 0
KMC4 111802Z 04023KT 06/02 A3029 RMK A01 T00610020  RH  075%=      5-min Rain = 0
KMC4 111803Z 04021G27KT 06/02 A3029 RMK A01 T00610020  RH  075%=      5-min Rain = 0
KMC4 111804Z 04022KT 06/02 A3029 RMK A01 T00610020  RH  075%=      5-min Rain = 0
KMC4 111805Z 03018KT 06/02 A3029 RMK A01 T00610019  RH  075%=      5-min Rain = 0
KMC4 111806Z 03019G26KT 06/02 A303 RMK A01 T00610020  RH  075%=      5-min Rain = 0
KMC4 111807Z 04019G24KT 06/02 A303 RMK A01 T00610020  RH  075%=      5-min Rain = 0
KMC4 111808Z 03020G26KT 06/02 A303 RMK A01 T00600019  RH  075%=      5-min Rain = 0
KMC4 111809Z 04019G24KT 06/02 A303 RMK A01 T00600019  RH  075%=      5-min Rain = 0
KMC4 111810Z 03017KT 06/02 A303 RMK A01 T00600019  RH  075%=      5-min Rain = 0
KMC4 111811Z 04018KT 06/02 A303 RMK A01 T00590019  RH  075%=      5-min Rain = 0
KMC4 111812Z 03015G20KT 06/02 A303 RMK A01 T00590019  RH  075%=      5-min Rain = 0
KMC4 111813Z 03015G22KT 06/02 A303 RMK A01 T00590020  RH  076%=      5-min Rain = 0
KMC4 111814Z 03016KT 06/02 A3031 RMK A01 T00590019  RH  075%=      5-min Rain = 0
KMC4 111815Z 03018G23KT 06/02 A3031 RMK A01 T00600020  RH  076%=      5-min Rain = 0
KMC4 111816Z 03015G23KT 06/02 A3031 RMK A01 T00600019  RH  075%=      5-min Rain = 0
KMC4 111817Z 02012KT 06/02 A3031 RMK A01 T00600020  RH  076%=      5-min Rain = 0
KMC4 111818Z 02016G23KT 06/02 A3031 RMK A01 T00610021  RH  076%=      5-min Rain = 0
KMC4 111819Z 02020G28KT 06/02 A3031 RMK A01 T00600018  RH  074%=      5-min Rain = 0
KMC4 111820Z 03019KT 06/02 A3031 RMK A01 T00580015  RH  074%=      5-min Rain = 0
KMC4 111821Z 02019G25KT 06/02 A3031 RMK A01 T00570015  RH  074%=      5-min Rain = 0
KMC4 111822Z 03015KT 06/01 A3031 RMK A01 T00560014  RH  075%=      5-min Rain = 0
KMC4 111823Z 02020KT 06/02 A3031 RMK A01 T00550015  RH  075%=      5-min Rain = 0
KMC4 111824Z 02019KT 06/01 A3031 RMK A01 T00550014  RH  075%=      5-min Rain = 0
KMC4 111825Z 02016KT 05/01 A3031 RMK A01 T00540013  RH  075%=      5-min Rain = 0
KMC4 111826Z 02014G19KT 05/01 A3031 RMK A01 T00540014  RH  075%=      5-min Rain = 0
KMC4 111827Z 03014KT 05/01 A3031 RMK A01 T00540014  RH  075%=      5-min Rain = 0
KMC4 111828Z 02012G17KT 06/01 A3032 RMK A01 T00550014  RH  075%=      5-min Rain = 0
KMC4 111829Z 02016KT 06/01 A3031 RMK A01 T00550014  RH  075%=      5-min Rain = 0
KMC4 111830Z 03015KT 06/01 A3031 RMK A01 T00550013  RH  074%=      5-min Rain = 0
KMC4 111831Z 03017KT 06/01 A3031 RMK A01 T00550012  RH  074%=      5-min Rain = 0
KMC4 111832Z 03019G24KT 06/01 A3031 RMK A01 T00550012  RH  074%=      5-min Rain = 0
KMC4 111833Z 03022G29KT 05/01 A3031 RMK A01 T00540011  RH  074%=      5-min Rain = 0
KMC4 111834Z 02018G23KT 05/01 A3031 RMK A01 T00530010  RH  074%=      5-min Rain = 0
KMC4 111835Z 02015G21KT 05/01 A3032 RMK A01 T00530011  RH  074%=      5-min Rain = 0
KMC4 111836Z 01017KT 05/01 A3032 RMK A01 T00530011  RH  074%=      5-min Rain = 0
KMC4 111837Z 02017G24KT 05/01 A3032 RMK A01 T00530010  RH  074%=      5-min Rain = 0
KMC4 111838Z 02019G24KT 05/01 A3032 RMK A01 T00520009  RH  074%=      5-min Rain = 0
KMC4 111839Z 02019G24KT 05/01 A3032 RMK A01 T00520008  RH  074%=      5-min Rain = 0
KMC4 111840Z 02017KT 05/01 A3032 RMK A01 T00510008  RH  074%=      5-min Rain = 0
KMC4 111841Z 01016G24KT 05/01 A3032 RMK A01 T00510008  RH  073%=      5-min Rain = 0
KMC4 111842Z 02013G18KT 05/01 A3032 RMK A01 T00510008  RH  073%=      5-min Rain = 0
KMC4 111843Z 02015KT 05/01 A3032 RMK A01 T00520009  RH  074%=      5-min Rain = 0
KMC4 111844Z 02013G18KT 05/01 A3032 RMK A01 T00530011  RH  074%=      5-min Rain = 0
KMC4 111845Z 03018G23KT 05/01 A3032 RMK A01 T00540010  RH  074%=      5-min Rain = 0
KMC4 111846Z 03022KT 05/01 A3031 RMK A01 T00530009  RH  073%=      5-min Rain = 0
KMC4 111847Z 03019G24KT 05/01 A3032 RMK A01 T00520008  RH  073%=      5-min Rain = 0
KMC4 111848Z 04021KT 05/01 A3031 RMK A01 T00520007  RH  073%=      5-min Rain = 0
KMC4 111849Z 03018G24KT 05/01 A3031 RMK A01 T00520008  RH  073%=      5-min Rain = 0
KMC4 111850Z 03018KT 05/01 A3032 RMK A01 T00520009  RH  074%=      5-min Rain = 0
KMC4 111851Z 04016KT 05/01 A3032 RMK A01 T00520009  RH  073%=      5-min Rain = 0
KMC4 111852Z 03017KT 05/01 A3032 RMK A01 T00530010  RH  074%=      5-min Rain = 0
KMC4 111853Z 03011G16KT 05/01 A3032 RMK A01 T00530009  RH  073%=      5-min Rain = 0
KMC4 111854Z 02010KT 05/01 A3032 RMK A01 T00540011  RH  074%=      5-min Rain = 0
KMC4 111855Z 03017KT 05/01 A3032 RMK A01 T00540011  RH  074%=      5-min Rain = 0
KMC4 111856Z 02016KT 05/01 A3032 RMK A01 T00540010  RH  073%=      5-min Rain = 0
KMC4 111857Z 02011KT 05/01 A3033 RMK A01 T00540010  RH  073%=      5-min Rain = 0
KMC4 111858Z 01014G21KT 06/01 A3033 RMK A01 T00550010  RH  073%=      5-min Rain = 0
KMC4 111859Z 01017G22KT 06/01 A3033 RMK A01 T00550009  RH  072%=      5-min Rain = 0
KMC4 111900Z 01016G21KT 05/01 A3033 RMK A01 T00540008  RH  072%=      5-min Rain = 0
KMC4 111901Z 02014G19KT 05/01 A3033 RMK A01 T00520007  RH  073%=      5-min Rain = 0
KMC4 111902Z 01017KT 05/01 A3033 RMK A01 T00520008  RH  073%=      5-min Rain = 0
KMC4 111903Z 01012KT 05/01 A3033 RMK A01 T00530008  RH  073%=      5-min Rain = 0
KMC4 111904Z 01013G19KT 05/01 A3033 RMK A01 T00530008  RH  073%=      5-min Rain = 0
KMC4 111905Z 01016G21KT 05/01 A3033 RMK A01 T00530007  RH  072%=      5-min Rain = 0
KMC4 111906Z 01015KT 05/01 A3033 RMK A01 T00520006  RH  072%=      5-min Rain = 0
KMC4 111907Z 02017KT 05/01 A3033 RMK A01 T00510007  RH  073%=      5-min Rain = 0
KMC4 111908Z 02016G24KT 05/01 A3034 RMK A01 T00520007  RH  073%=      5-min Rain = 0
KMC4 111909Z 01015G21KT 05/01 A3034 RMK A01 T00510006  RH  073%=      5-min Rain = 0
KMC4 111910Z 01018KT 05/01 A3034 RMK A01 T00520007  RH  073%=      5-min Rain = 0
KMC4 111911Z 01013G19KT 05/01 A3034 RMK A01 T00510007  RH  073%=      5-min Rain = 0
KMC4 111912Z 01014G19KT 05/01 A3034 RMK A01 T00510007  RH  073%=      5-min Rain = 0
KMC4 111913Z 01018KT 05/01 A3034 RMK A01 T00510006  RH  073%=      5-min Rain = 0
KMC4 111914Z 02016KT 05/01 A3034 RMK A01 T00500006  RH  073%=      5-min Rain = 0
KMC4 111915Z 02013G18KT 05/01 A3034 RMK A01 T00500007  RH  074%=      5-min Rain = 0
KMC4 111916Z 01017KT 05/01 A3034 RMK A01 T00500006  RH  073%=      5-min Rain = 0
KMC4 111917Z 02018KT 05/00 A3034 RMK A01 T00480004  RH  073%=      5-min Rain = 0
KMC4 111918Z 02013G20KT 05/01 A3035 RMK A01 T00470005  RH  074%=      5-min Rain = 0
KMC4 111919Z 01018G23KT 05/01 A3035 RMK A01 T00470005  RH  074%=      5-min Rain = 0
KMC4 111920Z 01017KT 05/00 A3035 RMK A01 T00470004  RH  074%=      5-min Rain = 0
KMC4 111921Z 01013KT 05/00 A3035 RMK A01 T00460004  RH  074%=      5-min Rain = 0
KMC4 111922Z 01016G22KT 05/01 A3035 RMK A01 T00460005  RH  074%=      5-min Rain = 0
KMC4 111923Z 02013KT 05/00 A3035 RMK A01 T00460004  RH  074%=      5-min Rain = 0
KMC4 111924Z 02010G16KT 05/01 A3035 RMK A01 T00460006  RH  075%=      5-min Rain = 0
KMC4 111925Z 36012G17KT 05/01 A3035 RMK A01 T00470006  RH  075%=      5-min Rain = 0
KMC4 111926Z 00014KT 05/01 A3035 RMK A01 T00460005  RH  075%=      5-min Rain = 0
KMC4 111927Z 01014G20KT 05/01 A3035 RMK A01 T00470005  RH  075%=      5-min Rain = 0
KMC4 111928Z 36010KT 05/01 A3036 RMK A01 T00470005  RH  074%=      5-min Rain = 0
KMC4 111929Z 00013KT 05/01 A3036 RMK A01 T00470005  RH  075%=      5-min Rain = 0
KMC4 111930Z 36013KT 05/00 A3036 RMK A01 T00460004  RH  074%=      5-min Rain = 0
KMC4 111931Z 36013G20KT 05/00 A3036 RMK A01 T00450003  RH  074%=      5-min Rain = 0
KMC4 111932Z 01009KT 04/00 A3036 RMK A01 T00440002  RH  074%=      5-min Rain = 0
KMC4 111933Z 01011G17KT 04/00 A3037 RMK A01 T00440003  RH  074%=      5-min Rain = 0
KMC4 111934Z 00015G23KT 05/00 A3037 RMK A01 T00450001  RH  073%=      5-min Rain = 0
KMC4 111935Z 01012G17KT 04/00 A3037 RMK A01 T00440001  RH  073%=      5-min Rain = 0
KMC4 111936Z 01013KT 04/00 A3037 RMK A01 T00440000  RH  073%=      5-min Rain = 0
KMC4 111937Z 01012KT 04/00 A3037 RMK A01 T00440000  RH  073%=      5-min Rain = 0
KMC4 111938Z 00012G18KT 04/00 A3037 RMK A01 T00440000  RH  073%=      5-min Rain = 0
KMC4 111939Z 36014KT 04/M00 A3037 RMK A01 T00431001  RH  073%=      5-min Rain = 0
KMC4 111940Z 01012KT 04/M00 A3037 RMK A01 T00421001  RH  074%=      5-min Rain = 0
KMC4 111941Z 36013KT 04/00 A3037 RMK A01 T004200-0  RH  074%=      5-min Rain = 0
KMC4 111942Z 36013G18KT 04/M00 A3037 RMK A01 T00411001  RH  074%=      5-min Rain = 0
KMC4 111943Z 36016KT 04/M00 A3037 RMK A01 T00411001  RH  074%=      5-min Rain = 0
KMC4 111944Z 36018KT 04/M00 A3037 RMK A01 T00401002  RH  074%=      5-min Rain = 0
KMC4 111945Z 00013G18KT 04/M00 A3037 RMK A01 T00391002  RH  074%=      5-min Rain = 0
KMC4 111946Z 01015G22KT 04/M00 A3037 RMK A01 T00391002  RH  075%=      5-min Rain = 0
KMC4 111947Z 00015KT 04/M00 A3037 RMK A01 T00391002  RH  074%=      5-min Rain = 0
KMC4 111948Z 35015KT 04/M00 A3037 RMK A01 T00381003  RH  075%=      5-min Rain = 0
KMC4 111949Z 00016KT 04/M00 A3037 RMK A01 T00381003  RH  075%=      5-min Rain = 0
KMC4 111950Z 01013KT 04/M00 A3037 RMK A01 T00371004  RH  075%=      5-min Rain = 0
KMC4 111951Z 00016KT 04/M00 A3037 RMK A01 T00371003  RH  075%=      5-min Rain = 0
KMC4 111952Z 36012KT 04/M00 A3038 RMK A01 T00371003  RH  075%=      5-min Rain = 0
KMC4 111953Z 01009KT 04/M00 A3037 RMK A01 T00371003  RH  075%=      5-min Rain = 0
KMC4 111954Z 02014KT 04/M00 A3037 RMK A01 T00371003  RH  075%=      5-min Rain = 0
KMC4 111955Z 01015G20KT 04/M00 A3037 RMK A01 T00381003  RH  075%=      5-min Rain = 0
KMC4 111956Z 01017KT 04/M01 A3037 RMK A01 T00371005  RH  074%=      5-min Rain = 0
KMC4 111957Z 02013G18KT 04/M01 A3037 RMK A01 T00361006  RH  074%=      5-min Rain = 0
KMC4 111958Z 01017G22KT 04/M01 A3037 RMK A01 T00361006  RH  074%=      5-min Rain = 0
KMC4 111959Z 02014G20KT 04/M01 A3037 RMK A01 T00351008  RH  073%=      5-min Rain = 0
KMC4 112000Z 02015G20KT 03/M01 A3037 RMK A01 T00341008  RH  074%=      5-min Rain = 0
KMC4 112001Z 02014KT 04/M01 A3037 RMK A01 T00351008  RH  074%=      5-min Rain = 0
KMC4 112002Z 02014G20KT 04/M01 A3037 RMK A01 T00351007  RH  074%=      5-min Rain = 0
KMC4 112003Z 02010G15KT 04/M01 A3038 RMK A01 T00361007  RH  074%=      5-min Rain = 0
KMC4 112004Z 01013KT 04/M01 A3038 RMK A01 T00361007  RH  074%=      5-min Rain = 0
KMC4 112005Z 01012KT 04/M01 A3038 RMK A01 T00361007  RH  073%=      5-min Rain = 0
KMC4 112006Z 00012G17KT 04/M01 A3038 RMK A01 T00351007  RH  074%=      5-min Rain = 0
KMC4 112007Z 01015KT 04/M01 A3038 RMK A01 T00351008  RH  073%=      5-min Rain = 0
KMC4 112008Z 02015KT 03/M01 A3038 RMK A01 T00341009  RH  073%=      5-min Rain = 0
KMC4 112009Z 01013KT 03/M01 A3038 RMK A01 T00331009  RH  074%=      5-min Rain = 0
KMC4 112010Z 02015KT 03/M01 A3038 RMK A01 T00331009  RH  074%=      5-min Rain = 0
KMC4 112011Z 36017KT 03/M01 A3038 RMK A01 T00331009  RH  074%=      5-min Rain = 0
KMC4 112012Z 00014G19KT 03/M01 A3038 RMK A01 T00321010  RH  074%=      5-min Rain = 0
KMC4 112013Z 36015KT 03/M01 A3039 RMK A01 T00321010  RH  074%=      5-min Rain = 0
KMC4 112014Z 36015KT 03/M01 A3039 RMK A01 T00321010  RH  074%=      5-min Rain = 0
KMC4 112015Z 35012KT 03/M01 A3039 RMK A01 T00311010  RH  074%=      5-min Rain = 0
KMC4 112016Z 35015KT 03/M01 A3039 RMK A01 T00311010  RH  074%=      5-min Rain = 0
KMC4 112017Z 35013G18KT 03/M01 A3039 RMK A01 T00321010  RH  074%=      5-min Rain = 0
KMC4 112018Z 34014G21KT 03/M01 A3039 RMK A01 T00311010  RH  074%=      5-min Rain = 0
KMC4 112019Z 00017KT 03/M01 A3039 RMK A01 T00311011  RH  074%=      5-min Rain = 0
KMC4 112020Z 36016G22KT 03/M01 A3039 RMK A01 T00301012  RH  074%=      5-min Rain = 0
KMC4 112021Z 35014G20KT 03/M01 A3039 RMK A01 T00291012  RH  074%=      5-min Rain = 0
KMC4 112022Z 35017G23KT 03/M01 A304 RMK A01 T00291013  RH  074%=      5-min Rain = 0
KMC4 112023Z 35019G24KT 03/M01 A304 RMK A01 T00281014  RH  074%=      5-min Rain = 0
KMC4 112024Z 35018G23KT 03/M02 A304 RMK A01 T00271015  RH  074%=      5-min Rain = 0
KMC4 112025Z 01016KT 03/M01 A304 RMK A01 T00271014  RH  074%=      5-min Rain = 0
KMC4 112026Z 01016G23KT 03/M02 A304 RMK A01 T00271015  RH  074%=      5-min Rain = 0
KMC4 112027Z 01018G23KT 03/M02 A304 RMK A01 T00271015  RH  074%=      5-min Rain = 0
KMC4 112028Z 00017KT 03/M02 A304 RMK A01 T00271015  RH  074%=      5-min Rain = 0
KMC4 112029Z 01014KT 03/M02 A304 RMK A01 T00271015  RH  074%=      5-min Rain = 0
KMC4 112030Z 01013KT 03/M02 A304 RMK A01 T00271015  RH  074%=      5-min Rain = 0
KMC4 112031Z 01013KT 03/M01 A304 RMK A01 T00271014  RH  074%=      5-min Rain = 0
KMC4 112032Z 01012G18KT 03/M01 A304 RMK A01 T00271014  RH  074%=      5-min Rain = 0
KMC4 112033Z 01015KT 03/M02 A304 RMK A01 T00271015  RH  074%=      5-min Rain = 0
KMC4 112034Z 01016KT 03/M02 A304 RMK A01 T00271015  RH  074%=      5-min Rain = 0
KMC4 112035Z 01014KT 03/M02 A304 RMK A01 T00261015  RH  074%=      5-min Rain = 0
KMC4 112036Z 01010KT 03/M01 A304 RMK A01 T00261014  RH  075%=      5-min Rain = 0
KMC4 112037Z 01009KT 03/M01 A3041 RMK A01 T00261014  RH  075%=      5-min Rain = 0
KMC4 112038Z 00013KT 03/M01 A3041 RMK A01 T00271013  RH  075%=      5-min Rain = 0
KMC4 112039Z 34013KT 03/M01 A3041 RMK A01 T00271013  RH  075%=      5-min Rain = 0
KMC4 112040Z 34011G16KT 03/M01 A3041 RMK A01 T00261013  RH  075%=      5-min Rain = 0
KMC4 112041Z 34010KT 03/M01 A3041 RMK A01 T00261012  RH  076%=      5-min Rain = 0
KMC4 112042Z 34011KT 03/M01 A3041 RMK A01 T00261012  RH  076%=      5-min Rain = 0
KMC4 112043Z 35012KT 03/M01 A3041 RMK A01 T00261013  RH  075%=      5-min Rain = 0
KMC4 112044Z 35009KT 03/M01 A3041 RMK A01 T00251014  RH  075%=      5-min Rain = 0
KMC4 112045Z 34013KT 03/M01 A3041 RMK A01 T00251014  RH  075%=      5-min Rain = 0
KMC4 112046Z 35012KT 03/M01 A3042 RMK A01 T00251014  RH  075%=      5-min Rain = 0
KMC4 112047Z 34012KT 03/M01 A3042 RMK A01 T00251014  RH  075%=      5-min Rain = 0
KMC4 112048Z 34013KT 02/M02 A3042 RMK A01 T00241015  RH  075%=      5-min Rain = 0
KMC4 112049Z 34010KT 03/M02 A3042 RMK A01 T00251015  RH  075%=      5-min Rain = 0
KMC4 112050Z 35009KT 03/M01 A3042 RMK A01 T00251014  RH  076%=      5-min Rain = 0
KMC4 112051Z 34009G18KT 03/M02 A3042 RMK A01 T00251015  RH  075%=      5-min Rain = 0
KMC4 112052Z 35013KT 02/M02 A3042 RMK A01 T00241016  RH  075%=      5-min Rain = 0
KMC4 112053Z 00014G19KT 02/M02 A3042 RMK A01 T00241017  RH  075%=      5-min Rain = 0
KMC4 112054Z 01015KT 02/M02 A3042 RMK A01 T00231018  RH  074%=      5-min Rain = 0
KMC4 112055Z 01016KT 02/M02 A3042 RMK A01 T00231019  RH  074%=      5-min Rain = 0
KMC4 112056Z 00013KT 02/M02 A3042 RMK A01 T00221020  RH  074%=      5-min Rain = 0
KMC4 112057Z 00016KT 02/M02 A3042 RMK A01 T00221020  RH  074%=      5-min Rain = 0
KMC4 112058Z 00016G21KT 02/M02 A3042 RMK A01 T00221021  RH  073%=      5-min Rain = 0
KMC4 112059Z 01012G18KT 02/M02 A3042 RMK A01 T00211022  RH  073%=      5-min Rain = 0
KMC4 112100Z 35014KT 02/M02 A3042 RMK A01 T00211021  RH  074%=      5-min Rain = 0
KMC4 112101Z 35013G19KT 02/M02 A3042 RMK A01 T00211021  RH  074%=      5-min Rain = 0
KMC4 112102Z 35015KT 02/M02 A3042 RMK A01 T00211021  RH  073%=      5-min Rain = 0
KMC4 112103Z 35011KT 02/M02 A3042 RMK A01 T00211022  RH  073%=      5-min Rain = 0
KMC4 112104Z 35011KT 02/M02 A3042 RMK A01 T00201021  RH  074%=      5-min Rain = 0
KMC4 112105Z 35011KT 02/M02 A3042 RMK A01 T00211021  RH  074%=      5-min Rain = 0
KMC4 112106Z 35015KT 02/M02 A3042 RMK A01 T00211021  RH  073%=      5-min Rain = 0
KMC4 112107Z 35014KT 02/M02 A3042 RMK A01 T00211022  RH  073%=      5-min Rain = 0
KMC4 112108Z 36016G21KT 02/M02 A3042 RMK A01 T00201023  RH  073%=      5-min Rain = 0
KMC4 112109Z 35015KT 02/M02 A3042 RMK A01 T00191024  RH  073%=      5-min Rain = 0
KMC4 112110Z 36015KT 02/M02 A3042 RMK A01 T00181024  RH  074%=      5-min Rain = 0
KMC4 112111Z 00010KT 02/M02 A3042 RMK A01 T00181024  RH  074%=      5-min Rain = 0
KMC4 112112Z 35013KT 02/M02 A3042 RMK A01 T00181023  RH  074%=      5-min Rain = 0
KMC4 112113Z 00014KT 02/M02 A3043 RMK A01 T00181024  RH  074%=      5-min Rain = 0
KMC4 112114Z 01014KT 02/M02 A3043 RMK A01 T00181024  RH  073%=      5-min Rain = 0
KMC4 112115Z 01014KT 02/M03 A3043 RMK A01 T00181025  RH  073%=      5-min Rain = 0
KMC4 112116Z 01011G17KT 02/M02 A3043 RMK A01 T00181024  RH  073%=      5-min Rain = 0
KMC4 112117Z 01012G18KT 02/M02 A3043 RMK A01 T00191023  RH  073%=      5-min Rain = 0
KMC4 112118Z 01011KT 02/M02 A3043 RMK A01 T00191024  RH  073%=      5-min Rain = 0
KMC4 112119Z 35015KT 02/M02 A3043 RMK A01 T00191024  RH  073%=      5-min Rain = 0
KMC4 112120Z 35013KT 02/M03 A3043 RMK A01 T00191025  RH  073%=      5-min Rain = 0
KMC4 112121Z 00014G19KT 02/M03 A3043 RMK A01 T00191025  RH  073%=      5-min Rain = 0
KMC4 112122Z 01015KT 02/M03 A3043 RMK A01 T00181025  RH  073%=      5-min Rain = 0
KMC4 112123Z 01015KT 02/M03 A3043 RMK A01 T00181026  RH  073%=      5-min Rain = 0
KMC4 112124Z 00014G20KT 02/M03 A3043 RMK A01 T00181025  RH  073%=      5-min Rain = 0
KMC4 112125Z 00012KT 02/M03 A3044 RMK A01 T00181025  RH  073%=      5-min Rain = 0
KMC4 112126Z 00011KT 02/M03 A3044 RMK A01 T00171026  RH  073%=      5-min Rain = 0
KMC4 112127Z 00011KT 02/M03 A3044 RMK A01 T00171025  RH  073%=      5-min Rain = 0
KMC4 112128Z 35010KT 02/M03 A3044 RMK A01 T00171025  RH  074%=      5-min Rain = 0
KMC4 112129Z 36009KT 02/M02 A3044 RMK A01 T00181024  RH  074%=      5-min Rain = 0
KMC4 112130Z 01009G14KT 02/M02 A3044 RMK A01 T00181023  RH  074%=      5-min Rain = 0
KMC4 112131Z 01011G16KT 02/M02 A3044 RMK A01 T00181023  RH  074%=      5-min Rain = 0
KMC4 112132Z 00012KT 02/M02 A3044 RMK A01 T00191024  RH  073%=      5-min Rain = 0
KMC4 112133Z 01011KT 02/M03 A3044 RMK A01 T00181025  RH  073%=      5-min Rain = 0
KMC4 112134Z 36009KT 02/M03 A3044 RMK A01 T00181025  RH  073%=      5-min Rain = 0
KMC4 112135Z 36014KT 02/M03 A3045 RMK A01 T00181025  RH  073%=      5-min Rain = 0
KMC4 112136Z 01014G19KT 02/M03 A3045 RMK A01 T00181027  RH  072%=      5-min Rain = 0
KMC4 112137Z 01013G19KT 02/M03 A3044 RMK A01 T00181027  RH  072%=      5-min Rain = 0
KMC4 112138Z 01015KT 02/M03 A3045 RMK A01 T00181028  RH  072%=      5-min Rain = 0
KMC4 112139Z 36015KT 02/M03 A3045 RMK A01 T00181029  RH  071%=      5-min Rain = 0
KMC4 112140Z 01014KT 02/M03 A3045 RMK A01 T00181029  RH  071%=      5-min Rain = 0
KMC4 112141Z 01014KT 02/M03 A3045 RMK A01 T00181028  RH  071%=      5-min Rain = 0
KMC4 112142Z 00014KT 02/M03 A3045 RMK A01 T00181029  RH  071%=      5-min Rain = 0
KMC4 112143Z 01016KT 02/M03 A3045 RMK A01 T00181030  RH  071%=      5-min Rain = 0
KMC4 112144Z 01014KT 02/M03 A3045 RMK A01 T00181030  RH  071%=      5-min Rain = 0
KMC4 112145Z 00016KT 02/M03 A3045 RMK A01 T00171030  RH  071%=      5-min Rain = 0
KMC4 112146Z 01015KT 02/M03 A3045 RMK A01 T00171031  RH  071%=      5-min Rain = 0
KMC4 112147Z 01015KT 02/M03 A3045 RMK A01 T00171031  RH  071%=      5-min Rain = 0
KMC4 112148Z 00013KT 02/M03 A3045 RMK A01 T00161031  RH  070%=      5-min Rain = 0
KMC4 112149Z 00012KT 02/M03 A3045 RMK A01 T00161032  RH  070%=      5-min Rain = 0
KMC4 112150Z 35012KT 02/M03 A3045 RMK A01 T00161032  RH  071%=      5-min Rain = 0
KMC4 112151Z 35014KT 02/M03 A3045 RMK A01 T00161031  RH  071%=      5-min Rain = 0
KMC4 112152Z 00011KT 02/M03 A3045 RMK A01 T00161031  RH  071%=      5-min Rain = 0
KMC4 112153Z 00012KT 02/M03 A3045 RMK A01 T00161031  RH  071%=      5-min Rain = 0
KMC4 112154Z 36014KT 02/M03 A3045 RMK A01 T00161031  RH  071%=      5-min Rain = 0
KMC4 112155Z 00016KT 02/M03 A3045 RMK A01 T00161032  RH  071%=      5-min Rain = 0
KMC4 112156Z 35014KT 02/M03 A3045 RMK A01 T00161032  RH  071%=      5-min Rain = 0
KMC4 112157Z 36015KT 02/M03 A3045 RMK A01 T00161031  RH  071%=      5-min Rain = 0
KMC4 112158Z 35012KT 02/M03 A3045 RMK A01 T00151032  RH  071%=      5-min Rain = 0
KMC4 112159Z 36011KT 02/M03 A3045 RMK A01 T00151031  RH  072%=      5-min Rain = 0
KMC4 112200Z 35012G17KT 02/M03 A3045 RMK A01 T00151030  RH  072%=      5-min Rain = 0
KMC4 112201Z 36013KT 02/M03 A3045 RMK A01 T00161030  RH  071%=      5-min Rain = 0
KMC4 112202Z 36012KT 02/M03 A3045 RMK A01 T00151031  RH  071%=      5-min Rain = 0
KMC4 112203Z 36015KT 02/M03 A3045 RMK A01 T00151031  RH  071%=      5-min Rain = 0
KMC4 112204Z 36015KT 02/M03 A3045 RMK A01 T00151032  RH  071%=      5-min Rain = 0
KMC4 112205Z 00014KT 01/M03 A3045 RMK A01 T00141032  RH  071%=      5-min Rain = 0
KMC4 112206Z 00012G18KT 02/M03 A3045 RMK A01 T00151032  RH  071%=      5-min Rain = 0
KMC4 112207Z 00014KT 02/M03 A3045 RMK A01 T00151032  RH  071%=      5-min Rain = 0
KMC4 112208Z 01013KT 01/M03 A3045 RMK A01 T00141032  RH  071%=      5-min Rain = 0
KMC4 112209Z 00011KT 02/M03 A3045 RMK A01 T00151031  RH  071%=      5-min Rain = 0
KMC4 112210Z 36010KT 02/M03 A3045 RMK A01 T00151031  RH  072%=      5-min Rain = 0
KMC4 112211Z 01011G17KT 02/M03 A3045 RMK A01 T00151031  RH  072%=      5-min Rain = 0
KMC4 112212Z 02013KT 02/M03 A3045 RMK A01 T00151030  RH  072%=      5-min Rain = 0
KMC4 112213Z 01012KT 02/M03 A3045 RMK A01 T00161030  RH  072%=      5-min Rain = 0
KMC4 112214Z 36011KT 02/M03 A3045 RMK A01 T00161030  RH  072%=      5-min Rain = 0
KMC4 112215Z 01011KT 02/M03 A3045 RMK A01 T00161030  RH  072%=      5-min Rain = 0
KMC4 112216Z 01011KT 02/M03 A3045 RMK A01 T00161030  RH  071%=      5-min Rain = 0
KMC4 112217Z 01011KT 02/M03 A3045 RMK A01 T00161031  RH  071%=      5-min Rain = 0
KMC4 112218Z 01010KT 02/M03 A3045 RMK A01 T00161030  RH  072%=      5-min Rain = 0
KMC4 112219Z 01010KT 02/M03 A3045 RMK A01 T00161028  RH  072%=      5-min Rain = 0
KMC4 112220Z 01011G16KT 02/M03 A3045 RMK A01 T00171028  RH  072%=      5-min Rain = 0
KMC4 112221Z 02011KT 02/M03 A3045 RMK A01 T00171028  RH  072%=      5-min Rain = 0
KMC4 112222Z 00007KT 02/M03 A3045 RMK A01 T00171027  RH  072%=      5-min Rain = 0
KMC4 112223Z 00010G15KT 02/M03 A3046 RMK A01 T00171027  RH  072%=      5-min Rain = 0
KMC4 112224Z 36008KT 02/M03 A3046 RMK A01 T00171027  RH  072%=      5-min Rain = 0
KMC4 112225Z 01012KT 02/M03 A3046 RMK A01 T00171027  RH  073%=      5-min Rain = 0
KMC4 112226Z 01014KT 02/M03 A3045 RMK A01 T00161028  RH  072%=      5-min Rain = 0
KMC4 112227Z 00015KT 02/M03 A3045 RMK A01 T00151030  RH  072%=      5-min Rain = 0
KMC4 112228Z 01013KT 01/M03 A3045 RMK A01 T00141031  RH  072%=      5-min Rain = 0
KMC4 112229Z 01012G17KT 01/M03 A3045 RMK A01 T00141030  RH  072%=      5-min Rain = 0
KMC4 112230Z 00014KT 01/M03 A3046 RMK A01 T00141029  RH  073%=      5-min Rain = 0
KMC4 112231Z 01014KT 01/M03 A3046 RMK A01 T00141029  RH  073%=      5-min Rain = 0
KMC4 112232Z 01013KT 01/M03 A3046 RMK A01 T00141028  RH  073%=      5-min Rain = 0
KMC4 112233Z 01011KT 01/M03 A3046 RMK A01 T00141029  RH  073%=      5-min Rain = 0
KMC4 112234Z 01007KT 01/M03 A3046 RMK A01 T00141026  RH  074%=      5-min Rain = 0
KMC4 112235Z 01011KT 01/M03 A3046 RMK A01 T00141027  RH  074%=      5-min Rain = 0
KMC4 112236Z 01011KT 01/M03 A3046 RMK A01 T00141027  RH  074%=      5-min Rain = 0
KMC4 112237Z 01012KT 02/M03 A3046 RMK A01 T00151027  RH  074%=      5-min Rain = 0
KMC4 112238Z 02010KT 02/M03 A3046 RMK A01 T00151027  RH  074%=      5-min Rain = 0
KMC4 112239Z 02013KT 02/M03 A3046 RMK A01 T00151026  RH  074%=      5-min Rain = 0
KMC4 112240Z 01011KT 02/M03 A3047 RMK A01 T00151026  RH  074%=      5-min Rain = 0
KMC4 112241Z 01006KT 02/M03 A3047 RMK A01 T00151025  RH  075%=      5-min Rain = 0
KMC4 112242Z 36006KT 02/M03 A3047 RMK A01 T00151025  RH  075%=      5-min Rain = 0
KMC4 112243Z 35008KT 02/M02 A3047 RMK A01 T00151024  RH  075%=      5-min Rain = 0
KMC4 112244Z 01009KT 02/M02 A3047 RMK A01 T00151024  RH  075%=      5-min Rain = 0
KMC4 112245Z 36008KT 02/M02 A3047 RMK A01 T00151023  RH  075%=      5-min Rain = 0
KMC4 112246Z 35010G15KT 02/M02 A3048 RMK A01 T00151023  RH  076%=      5-min Rain = 0
KMC4 112247Z 35011KT 02/M03 A3048 RMK A01 T00151025  RH  075%=      5-min Rain = 0
KMC4 112248Z 35011KT 02/M03 A3048 RMK A01 T00151027  RH  074%=      5-min Rain = 0
KMC4 112249Z 35009KT 02/M03 A3048 RMK A01 T00151027  RH  074%=      5-min Rain = 0
KMC4 112250Z 36009KT 01/M03 A3048 RMK A01 T00141026  RH  074%=      5-min Rain = 0
KMC4 112251Z 36010KT 01/M03 A3048 RMK A01 T00141025  RH  075%=      5-min Rain = 0
KMC4 112252Z 36010KT 01/M03 A3048 RMK A01 T00141025  RH  075%=      5-min Rain = 0
KMC4 112253Z 02008KT 01/M03 A3048 RMK A01 T00141025  RH  075%=      5-min Rain = 0
KMC4 112254Z 01010KT 01/M02 A3048 RMK A01 T00141022  RH  077%=      5-min Rain = 0
KMC4 112255Z 00012KT 02/M02 A3048 RMK A01 T00151024  RH  076%=      5-min Rain = 0
KMC4 112256Z 01013KT 01/M03 A3048 RMK A01 T00141025  RH  075%=      5-min Rain = 0
KMC4 112257Z 01010KT 01/M03 A3048 RMK A01 T00141026  RH  075%=      5-min Rain = 0
KMC4 112258Z 01011KT 01/M03 A3048 RMK A01 T00141025  RH  075%=      5-min Rain = 0
KMC4 112259Z 01011KT 01/M03 A3048 RMK A01 T00141025  RH  075%=      5-min Rain = 0
KMC4 112300Z 02010KT 01/M02 A3048 RMK A01 T00141024  RH  075%=      5-min Rain = 0
KMC4 112301Z 01008KT 01/M02 A3048 RMK A01 T00141024  RH  075%=      5-min Rain = 0
KMC4 112302Z 00008KT 01/M02 A3048 RMK A01 T00141024  RH  076%=      5-min Rain = 0
KMC4 112303Z 35007KT 01/M02 A3048 RMK A01 T00141024  RH  076%=      5-min Rain = 0
KMC4 112304Z 00008KT 01/M02 A3048 RMK A01 T00141024  RH  076%=      5-min Rain = 0
KMC4 112305Z 35008KT 01/M02 A3048 RMK A01 T00141024  RH  075%=      5-min Rain = 0
KMC4 112306Z 36008KT 01/M02 A3048 RMK A01 T00141024  RH  076%=      5-min Rain = 0
KMC4 112307Z 36009KT 01/M02 A3048 RMK A01 T00141024  RH  075%=      5-min Rain = 0
KMC4 112308Z 01007KT 01/M03 A3049 RMK A01 T00141025  RH  075%=      5-min Rain = 0
KMC4 112309Z 35007KT 02/M02 A3049 RMK A01 T00151023  RH  076%=      5-min Rain = 0
KMC4 112310Z 35009KT 02/M02 A3049 RMK A01 T00151023  RH  076%=      5-min Rain = 0
KMC4 112311Z 35008KT 02/M03 A3049 RMK A01 T00151025  RH  075%=      5-min Rain = 0
KMC4 112312Z 36006KT 02/M02 A3049 RMK A01 T00151023  RH  076%=      5-min Rain = 0
KMC4 112313Z 35007KT 02/M02 A3049 RMK A01 T00151021  RH  077%=      5-min Rain = 0
KMC4 112314Z 35010KT 02/M02 A3049 RMK A01 T00151022  RH  077%=      5-min Rain = 0
KMC4 112315Z 36011KT 02/M02 A3049 RMK A01 T00151022  RH  076%=      5-min Rain = 0
KMC4 112316Z 36012KT 02/M02 A3049 RMK A01 T00151024  RH  075%=      5-min Rain = 0
KMC4 112317Z 36011KT 02/M03 A3048 RMK A01 T00151026  RH  074%=      5-min Rain = 0
KMC4 112318Z 36012KT 02/M03 A3048 RMK A01 T00151026  RH  074%=      5-min Rain = 0
KMC4 112319Z 00011G16KT 02/M03 A3048 RMK A01 T00151025  RH  075%=      5-min Rain = 0
KMC4 112320Z 35009KT 02/M02 A3048 RMK A01 T00151023  RH  076%=      5-min Rain = 0
KMC4 112321Z 35008KT 02/M02 A3048 RMK A01 T00151022  RH  076%=      5-min Rain = 0
KMC4 112322Z 35009KT 02/M02 A3048 RMK A01 T00151021  RH  077%=      5-min Rain = 0
KMC4 112323Z 34010G16KT 02/M02 A3048 RMK A01 T00151020  RH  077%=      5-min Rain = 0
KMC4 112324Z 34015KT 02/M02 A3048 RMK A01 T00151020  RH  077%=      5-min Rain = 0
KMC4 112325Z 34013KT 02/M02 A3048 RMK A01 T00151020  RH  078%=      5-min Rain = 0
KMC4 112326Z 35013KT 02/M02 A3048 RMK A01 T00151018  RH  079%=      5-min Rain = 0
KMC4 112327Z 36012G17KT 02/M02 A3048 RMK A01 T00151021  RH  077%=      5-min Rain = 0
KMC4 112328Z 36011G16KT 01/M02 A3048 RMK A01 T00141021  RH  077%=      5-min Rain = 0
KMC4 112329Z 35010G16KT 01/M02 A3049 RMK A01 T00141022  RH  077%=      5-min Rain = 0
KMC4 112330Z 35010KT 01/M02 A3049 RMK A01 T00141022  RH  077%=      5-min Rain = 0
KMC4 112331Z 35009KT 01/M02 A3049 RMK A01 T00131022  RH  077%=      5-min Rain = 0
KMC4 112332Z 35010KT 01/M02 A3049 RMK A01 T00131021  RH  078%=      5-min Rain = 0
KMC4 112333Z 36011KT 01/M02 A3049 RMK A01 T00131021  RH  078%=      5-min Rain = 0
KMC4 112334Z 00014KT 01/M02 A3049 RMK A01 T00131024  RH  076%=      5-min Rain = 0
KMC4 112335Z 02011KT 01/M02 A3049 RMK A01 T00131024  RH  076%=      5-min Rain = 0
KMC4 112336Z 01013KT 01/M02 A3049 RMK A01 T00131023  RH  077%=      5-min Rain = 0
KMC4 112337Z 01013KT 01/M02 A3049 RMK A01 T00131024  RH  076%=      5-min Rain = 0
KMC4 112338Z 01010KT 01/M03 A3049 RMK A01 T00131025  RH  076%=      5-min Rain = 0
KMC4 112339Z 02012KT 01/M02 A3049 RMK A01 T00131024  RH  076%=      5-min Rain = 0
KMC4 112340Z 01012KT 01/M03 A3049 RMK A01 T00131025  RH  076%=      5-min Rain = 0
KMC4 112341Z 00011G16KT 01/M03 A3049 RMK A01 T00121026  RH  076%=      5-min Rain = 0
KMC4 112342Z 35009KT 01/M03 A3049 RMK A01 T00131026  RH  076%=      5-min Rain = 0
KMC4 112343Z 01011KT 01/M03 A3049 RMK A01 T00121025  RH  076%=      5-min Rain = 0
KMC4 112344Z 01011KT 01/M03 A305 RMK A01 T00121026  RH  076%=      5-min Rain = 0
KMC4 112345Z 01009KT 01/M03 A305 RMK A01 T00121026  RH  076%=      5-min Rain = 0
KMC4 112346Z 01013KT 01/M03 A305 RMK A01 T00121026  RH  076%=      5-min Rain = 0
KMC4 112347Z 01010KT 01/M03 A305 RMK A01 T00121027  RH  075%=      5-min Rain = 0
KMC4 112348Z 01011KT 01/M03 A305 RMK A01 T00121026  RH  076%=      5-min Rain = 0
KMC4 112349Z 01013KT 01/M03 A305 RMK A01 T00121026  RH  076%=      5-min Rain = 0
KMC4 112350Z 01012KT 01/M03 A305 RMK A01 T00121026  RH  075%=      5-min Rain = 0
KMC4 112351Z 01012KT 01/M03 A305 RMK A01 T00121027  RH  075%=      5-min Rain = 0
KMC4 112352Z 01011KT 01/M03 A305 RMK A01 T00121027  RH  075%=      5-min Rain = 0
KMC4 112353Z 00008KT 01/M03 A3051 RMK A01 T00121027  RH  075%=      5-min Rain = 0
KMC4 112354Z 36008KT 01/M03 A3051 RMK A01 T00121026  RH  076%=      5-min Rain = 0
KMC4 112355Z 00010KT 01/M03 A3051 RMK A01 T00121025  RH  076%=      5-min Rain = 0
KMC4 112356Z 00009KT 01/M03 A3051 RMK A01 T00131026  RH  075%=      5-min Rain = 0
KMC4 112357Z 35010KT 01/M03 A3051 RMK A01 T00131026  RH  076%=      5-min Rain = 0
KMC4 112358Z 35011KT 01/M03 A3051 RMK A01 T00121027  RH  075%=      5-min Rain = 0
KMC4 112359Z 36010KT 01/M03 A3051 RMK A01 T00121027  RH  075%=      5-min Rain = 0
KMC4 120000Z 34007KT 01/M03 A3051 RMK A01 T00121027  RH  075%=      5-min Rain = 0
KMC4 120001Z 35009KT 01/M03 A3051 RMK A01 T00131025  RH  076%=      5-min Rain = 0
KMC4 120002Z 35010KT 01/M02 A3051 RMK A01 T00131024  RH  076%=      5-min Rain = 0
KMC4 120003Z 35009KT 01/M03 A3051 RMK A01 T00131026  RH  075%=      5-min Rain = 0
KMC4 120004Z 34011KT 01/M03 A3051 RMK A01 T00141025  RH  075%=      5-min Rain = 0
KMC4 120005Z 35011KT 01/M03 A3051 RMK A01 T00131025  RH  075%=      5-min Rain = 0
KMC4 120006Z 35013KT 01/M03 A3051 RMK A01 T00131025  RH  075%=      5-min Rain = 0
KMC4 120007Z 35015KT 01/M03 A3051 RMK A01 T00131027  RH  075%=      5-min Rain = 0
KMC4 120008Z 00011KT 01/M03 A3051 RMK A01 T00121027  RH  075%=      5-min Rain = 0
KMC4 120009Z 00013G18KT 01/M03 A3051 RMK A01 T00121026  RH  076%=      5-min Rain = 0
KMC4 120010Z 35009KT 01/M03 A3051 RMK A01 T00121027  RH  075%=      5-min Rain = 0
KMC4 120011Z 35009KT 01/M03 A3051 RMK A01 T00121026  RH  076%=      5-min Rain = 0
KMC4 120012Z 34012KT 01/M03 A3051 RMK A01 T00111026  RH  076%=      5-min Rain = 0
KMC4 120013Z 36012KT 01/M03 A3051 RMK A01 T00101027  RH  076%=      5-min Rain = 0
KMC4 120014Z 35012KT 01/M03 A3051 RMK A01 T00091029  RH  076%=      5-min Rain = 0
KMC4 120015Z 35014KT 01/M03 A3051 RMK A01 T00091029  RH  076%=      5-min Rain = 0
KMC4 120016Z 35010KT 01/M03 A3051 RMK A01 T00081030  RH  075%=      5-min Rain = 0
KMC4 120017Z 36013KT 01/M03 A3051 RMK A01 T00081030  RH  076%=      5-min Rain = 0
KMC4 120018Z 36012KT 01/M03 A3051 RMK A01 T00081032  RH  075%=      5-min Rain = 0
KMC4 120019Z 36012KT 01/M03 A3051 RMK A01 T00071031  RH  075%=      5-min Rain = 0
KMC4 120020Z 00012G17KT 01/M03 A3051 RMK A01 T00071032  RH  075%=      5-min Rain = 0
KMC4 120021Z 00015KT 01/M03 A3051 RMK A01 T00061033  RH  075%=      5-min Rain = 0
KMC4 120022Z 36012KT 01/M04 A3051 RMK A01 T00061035  RH  074%=      5-min Rain = 0
KMC4 120023Z 01014KT 01/M04 A3051 RMK A01 T00061035  RH  074%=      5-min Rain = 0
KMC4 120024Z 35012KT 01/M04 A3051 RMK A01 T00051035  RH  074%=      5-min Rain = 0
KMC4 120025Z 35012KT 01/M03 A3051 RMK A01 T00061034  RH  075%=      5-min Rain = 0
KMC4 120026Z 35011G18KT 01/M03 A3051 RMK A01 T00061034  RH  075%=      5-min Rain = 0
KMC4 120027Z 00012KT 01/M04 A3052 RMK A01 T00051035  RH  074%=      5-min Rain = 0
KMC4 120028Z 00011KT 01/M04 A3051 RMK A01 T00051036  RH  074%=      5-min Rain = 0
KMC4 120029Z 36008KT 01/M04 A3052 RMK A01 T00051036  RH  074%=      5-min Rain = 0
KMC4 120030Z 35010KT 01/M04 A3052 RMK A01 T00051035  RH  075%=      5-min Rain = 0
KMC4 120031Z 00011G16KT 01/M04 A3052 RMK A01 T00051037  RH  074%=      5-min Rain = 0
KMC4 120032Z 00012KT 00/M04 A3052 RMK A01 T00041038  RH  073%=      5-min Rain = 0
KMC4 120033Z 36009G14KT 01/M04 A3052 RMK A01 T00051037  RH  073%=      5-min Rain = 0
KMC4 120034Z 01011KT 01/M04 A3052 RMK A01 T00051036  RH  074%=      5-min Rain = 0
KMC4 120035Z 01008G13KT 00/M04 A3052 RMK A01 T00041035  RH  075%=      5-min Rain = 0
KMC4 120036Z 01007KT 01/M03 A3052 RMK A01 T00051034  RH  075%=      5-min Rain = 0
KMC4 120037Z 00009G14KT 01/M03 A3053 RMK A01 T00051034  RH  075%=      5-min Rain = 0
KMC4 120038Z 01008KT 01/M03 A3053 RMK A01 T00051034  RH  075%=      5-min Rain = 0
KMC4 120039Z 36007KT 01/M04 A3053 RMK A01 T00051035  RH  075%=      5-min Rain = 0
KMC4 120040Z 00007KT 01/M03 A3053 RMK A01 T00051034  RH  075%=      5-min Rain = 0
KMC4 120041Z 01009KT 01/M03 A3053 RMK A01 T00051034  RH  075%=      5-min Rain = 0
KMC4 120042Z 00007KT 01/M03 A3053 RMK A01 T00051034  RH  076%=      5-min Rain = 0
KMC4 120043Z 01007KT 01/M03 A3053 RMK A01 T00051033  RH  076%=      5-min Rain = 0
KMC4 120044Z 00006KT 01/M03 A3053 RMK A01 T00051032  RH  076%=      5-min Rain = 0
KMC4 120045Z 36006KT 01/M03 A3053 RMK A01 T00051032  RH  076%=      5-min Rain = 0
KMC4 120046Z 00005KT 01/M03 A3053 RMK A01 T00051032  RH  077%=      5-min Rain = 0
KMC4 120047Z 36008KT 01/M03 A3053 RMK A01 T00051031  RH  077%=      5-min Rain = 0
KMC4 120048Z 00008KT 01/M03 A3053 RMK A01 T00051034  RH  075%=      5-min Rain = 0
KMC4 120049Z 35006KT 01/M03 A3053 RMK A01 T00051034  RH  075%=      5-min Rain = 0
KMC4 120050Z 36010KT 00/M03 A3053 RMK A01 T00041033  RH  076%=      5-min Rain = 0
KMC4 120051Z 36010KT 00/M04 A3053 RMK A01 T00041035  RH  075%=      5-min Rain = 0
KMC4 120052Z 36008KT 00/M04 A3053 RMK A01 T00041036  RH  075%=      5-min Rain = 0
KMC4 120053Z 00009KT 00/M04 A3053 RMK A01 T00041035  RH  075%=      5-min Rain = 0
KMC4 120054Z 00008KT 00/M04 A3053 RMK A01 T00041035  RH  075%=      5-min Rain = 0
KMC4 120055Z 34008KT 00/M03 A3053 RMK A01 T00041033  RH  076%=      5-min Rain = 0
KMC4 120056Z 00007KT 00/M03 A3053 RMK A01 T00041032  RH  077%=      5-min Rain = 0
KMC4 120057Z 00008KT 00/M03 A3053 RMK A01 T00041032  RH  077%=      5-min Rain = 0
KMC4 120058Z 34008KT 00/M03 A3053 RMK A01 T00041031  RH  077%=      5-min Rain = 0
KMC4 120059Z 34008KT 00/M03 A3053 RMK A01 T00041030  RH  077%=      5-min Rain = 0
KMC4 120100Z 34009KT 00/M03 A3053 RMK A01 T00041031  RH  077%=      5-min Rain = 0
KMC4 120101Z 35009KT 01/M03 A3053 RMK A01 T00051030  RH  078%=      5-min Rain = 0
KMC4 120102Z 33010G15KT 01/M03 A3053 RMK A01 T00051031  RH  077%=      5-min Rain = 0
KMC4 120103Z 35011KT 01/M03 A3053 RMK A01 T00051032  RH  077%=      5-min Rain = 0
KMC4 120104Z 36010KT 01/M03 A3053 RMK A01 T00051034  RH  075%=      5-min Rain = 0
KMC4 120105Z 36010KT 01/M04 A3053 RMK A01 T00051035  RH  075%=      5-min Rain = 0
KMC4 120106Z 36011KT 00/M04 A3053 RMK A01 T00041037  RH  074%=      5-min Rain = 0
KMC4 120107Z 00008G13KT 00/M04 A3053 RMK A01 T00041037  RH  074%=      5-min Rain = 0
KMC4 120108Z 35006KT 00/M04 A3053 RMK A01 T00041035  RH  075%=      5-min Rain = 0
KMC4 120109Z 01008KT 00/M03 A3052 RMK A01 T00041034  RH  076%=      5-min Rain = 0
KMC4 120110Z 01008KT 00/M03 A3053 RMK A01 T00041034  RH  076%=      5-min Rain = 0
KMC4 120111Z 35006KT 00/M03 A3053 RMK A01 T00041034  RH  075%=      5-min Rain = 0
KMC4 120112Z 36006KT 00/M03 A3053 RMK A01 T00041034  RH  075%=      5-min Rain = 0
KMC4 120113Z 36009KT 00/M04 A3053 RMK A01 T00041035  RH  075%=      5-min Rain = 0
KMC4 120114Z 36010KT 00/M04 A3054 RMK A01 T00041039  RH  073%=      5-min Rain = 0
KMC4 120115Z 01009KT 00/M04 A3053 RMK A01 T00041041  RH  072%=      5-min Rain = 0
KMC4 120116Z 35008KT 00/M04 A3054 RMK A01 T00041040  RH  072%=      5-min Rain = 0
KMC4 120117Z 35007KT 00/M04 A3054 RMK A01 T00041039  RH  073%=      5-min Rain = 0
KMC4 120118Z 36011KT 01/M04 A3054 RMK A01 T00051039  RH  072%=      5-min Rain = 0
KMC4 120119Z 01009KT 01/M04 A3054 RMK A01 T00051041  RH  071%=      5-min Rain = 0
KMC4 120120Z 00008KT 01/M04 A3054 RMK A01 T00051040  RH  072%=      5-min Rain = 0
KMC4 120121Z 01007KT 00/M04 A3054 RMK A01 T00041041  RH  072%=      5-min Rain = 0
KMC4 120122Z 36007KT 01/M04 A3054 RMK A01 T00051040  RH  072%=      5-min Rain = 0
KMC4 120123Z 34007KT 01/M04 A3054 RMK A01 T00051041  RH  071%=      5-min Rain = 0
KMC4 120124Z 35008KT 01/M04 A3054 RMK A01 T00051039  RH  072%=      5-min Rain = 0
KMC4 120125Z 35007KT 01/M04 A3054 RMK A01 T00051039  RH  072%=      5-min Rain = 0
KMC4 120126Z 35006KT 01/M04 A3054 RMK A01 T00061038  RH  073%=      5-min Rain = 0
KMC4 120127Z 00007KT 01/M04 A3054 RMK A01 T00061038  RH  073%=      5-min Rain = 0
KMC4 120128Z 35007KT 01/M04 A3054 RMK A01 T00061039  RH  072%=      5-min Rain = 0
KMC4 120129Z 00012KT 01/M04 A3054 RMK A01 T00051039  RH  072%=      5-min Rain = 0
KMC4 120130Z 00011KT 01/M04 A3054 RMK A01 T00061043  RH  070%=      5-min Rain = 0
KMC4 120131Z 35008KT 01/M04 A3054 RMK A01 T00061042  RH  070%=      5-min Rain = 0
KMC4 120132Z 35012G17KT 01/M04 A3054 RMK A01 T00061039  RH  072%=      5-min Rain = 0
KMC4 120133Z 35012KT 01/M04 A3054 RMK A01 T00061043  RH  070%=      5-min Rain = 0
KMC4 120134Z 35010KT 01/M04 A3054 RMK A01 T00061043  RH  070%=      5-min Rain = 0
KMC4 120135Z 35009KT 01/M04 A3054 RMK A01 T00061043  RH  070%=      5-min Rain = 0
KMC4 120136Z 35010KT 01/M04 A3054 RMK A01 T00071042  RH  070%=      5-min Rain = 0
KMC4 120137Z 00011KT 01/M04 A3054 RMK A01 T00071043  RH  069%=      5-min Rain = 0
KMC4 120138Z 00009KT 01/M04 A3054 RMK A01 T00071044  RH  069%=      5-min Rain = 0
KMC4 120139Z 34009KT 01/M04 A3054 RMK A01 T00071043  RH  069%=      5-min Rain = 0
KMC4 120140Z 35011KT 01/M04 A3054 RMK A01 T00071042  RH  070%=      5-min Rain = 0
KMC4 120141Z 36013KT 01/M04 A3054 RMK A01 T00071043  RH  069%=      5-min Rain = 0
KMC4 120142Z 36013KT 01/M05 A3054 RMK A01 T00071045  RH  068%=      5-min Rain = 0
KMC4 120143Z 35010KT 01/M05 A3054 RMK A01 T00071045  RH  068%=      5-min Rain = 0
KMC4 120144Z 35010KT 01/M04 A3054 RMK A01 T00071044  RH  068%=      5-min Rain = 0
KMC4 120145Z 36009KT 01/M04 A3054 RMK A01 T00071044  RH  069%=      5-min Rain = 0
KMC4 120146Z 35009KT 01/M04 A3054 RMK A01 T00071044  RH  069%=      5-min Rain = 0
KMC4 120147Z 35011KT 01/M04 A3054 RMK A01 T00071043  RH  069%=      5-min Rain = 0
KMC4 120148Z 35011KT 01/M05 A3054 RMK A01 T00071045  RH  068%=      5-min Rain = 0
KMC4 120149Z 35008KT 01/M05 A3055 RMK A01 T00071045  RH  068%=      5-min Rain = 0
KMC4 120150Z 36008KT 01/M04 A3055 RMK A01 T00081043  RH  069%=      5-min Rain = 0
KMC4 120151Z 00008KT 01/M04 A3055 RMK A01 T00081041  RH  069%=      5-min Rain = 0
KMC4 120152Z 35006KT 01/M04 A3055 RMK A01 T00081042  RH  069%=      5-min Rain = 0
KMC4 120153Z 36006KT 01/M04 A3055 RMK A01 T00081040  RH  070%=      5-min Rain = 0
KMC4 120154Z 35007KT 01/M04 A3055 RMK A01 T00081040  RH  070%=      5-min Rain = 0
KMC4 120155Z 35010KT 01/M04 A3055 RMK A01 T00091041  RH  069%=      5-min Rain = 0
KMC4 120156Z 34009KT 01/M04 A3055 RMK A01 T00081042  RH  069%=      5-min Rain = 0
KMC4 120157Z 34010KT 01/M04 A3055 RMK A01 T00081041  RH  069%=      5-min Rain = 0
KMC4 120158Z 34009KT 01/M04 A3055 RMK A01 T00091043  RH  069%=      5-min Rain = 0
KMC4 120159Z 34010KT 01/M04 A3055 RMK A01 T00081043  RH  069%=      5-min Rain = 0.01
KMC4 120200Z 34010KT 01/M04 A3055 RMK A01 T00091041  RH  069%=      5-min Rain = 0
KMC4 120201Z 35008KT 01/M04 A3055 RMK A01 T00081043  RH  069%=      5-min Rain = 0
KMC4 120202Z 36006KT 01/M04 A3055 RMK A01 T00091042  RH  069%=      5-min Rain = 0
KMC4 120203Z 35008KT 01/M04 A3055 RMK A01 T00081041  RH  070%=      5-min Rain = 0
KMC4 120204Z 34009KT 01/M04 A3055 RMK A01 T00081041  RH  069%=      5-min Rain = 0
KMC4 120205Z 35010KT 01/M04 A3055 RMK A01 T00081042  RH  069%=      5-min Rain = 0
KMC4 120206Z 01010KT 01/M04 A3055 RMK A01 T00081044  RH  068%=      5-min Rain = 0
KMC4 120207Z 00011KT 01/M05 A3055 RMK A01 T00091046  RH  067%=      5-min Rain = 0
KMC4 120208Z 35009KT 01/M05 A3055 RMK A01 T00081047  RH  067%=      5-min Rain = 0
KMC4 120209Z 35010KT 01/M05 A3054 RMK A01 T00081046  RH  067%=      5-min Rain = 0
KMC4 120210Z 00011KT 01/M05 A3055 RMK A01 T00081049  RH  066%=      5-min Rain = 0
KMC4 120211Z 00008KT 01/M05 A3055 RMK A01 T00081053  RH  064%=      5-min Rain = 0
KMC4 120212Z 01008KT 01/M05 A3055 RMK A01 T00071051  RH  065%=      5-min Rain = 0
KMC4 120213Z 00007KT 01/M05 A3055 RMK A01 T00071049  RH  066%=      5-min Rain = 0
KMC4 120214Z 36006KT 01/M05 A3055 RMK A01 T00081047  RH  067%=      5-min Rain = 0
KMC4 120215Z 01007KT 01/M05 A3055 RMK A01 T00081046  RH  067%=      5-min Rain = 0
KMC4 120216Z 01006KT 01/M05 A3055 RMK A01 T00081046  RH  067%=      5-min Rain = 0
KMC4 120217Z 35007KT 01/M05 A3055 RMK A01 T00081048  RH  066%=      5-min Rain = 0
KMC4 120218Z 35008KT 01/M05 A3055 RMK A01 T00081047  RH  066%=      5-min Rain = 0
KMC4 120219Z 34007KT 01/M05 A3055 RMK A01 T00081047  RH  067%=      5-min Rain = 0
KMC4 120220Z 34008KT 01/M04 A3055 RMK A01 T00081044  RH  068%=      5-min Rain = 0
KMC4 120221Z 34012KT 01/M05 A3055 RMK A01 T00081045  RH  068%=      5-min Rain = 0
KMC4 120222Z 35011KT 01/M05 A3055 RMK A01 T00081049  RH  066%=      5-min Rain = 0
KMC4 120223Z 36009KT 01/M05 A3055 RMK A01 T00081049  RH  066%=      5-min Rain = 0
KMC4 120224Z 36009KT 01/M05 A3055 RMK A01 T00081050  RH  066%=      5-min Rain = 0
KMC4 120225Z 35007KT 01/M05 A3055 RMK A01 T00071050  RH  065%=      5-min Rain = 0
KMC4 120226Z 35006KT 01/M05 A3056 RMK A01 T00071048  RH  066%=      5-min Rain = 0
KMC4 120227Z 00010G16KT 01/M05 A3056 RMK A01 T00071048  RH  066%=      5-min Rain = 0
KMC4 120228Z 00010G15KT 01/M05 A3056 RMK A01 T00081053  RH  064%=      5-min Rain = 0
KMC4 120229Z 01011KT 01/M06 A3056 RMK A01 T00071055  RH  063%=      5-min Rain = 0
KMC4 120230Z 00010KT 01/M06 A3056 RMK A01 T00071057  RH  062%=      5-min Rain = 0
KMC4 120231Z 00010KT 01/M06 A3056 RMK A01 T00071058  RH  062%=      5-min Rain = 0
KMC4 120232Z 00009KT 01/M06 A3056 RMK A01 T00071057  RH  062%=      5-min Rain = 0
KMC4 120233Z 01007KT 01/M06 A3056 RMK A01 T00071056  RH  063%=      5-min Rain = 0
KMC4 120234Z 01006KT 01/M06 A3056 RMK A01 T00071055  RH  063%=      5-min Rain = 0
KMC4 120235Z 02010KT 01/M05 A3056 RMK A01 T00071054  RH  064%=      5-min Rain = 0
KMC4 120236Z 00011KT 01/M06 A3056 RMK A01 T00071055  RH  063%=      5-min Rain = 0
KMC4 120237Z 36009KT 01/M06 A3056 RMK A01 T00071057  RH  062%=      5-min Rain = 0
KMC4 120238Z 35009KT 01/M06 A3056 RMK A01 T00071056  RH  063%=      5-min Rain = 0
KMC4 120239Z 35006KT 01/M06 A3056 RMK A01 T00071055  RH  063%=      5-min Rain = 0
KMC4 120240Z 35007KT 01/M05 A3056 RMK A01 T00071053  RH  064%=      5-min Rain = 0
KMC4 120241Z 00009KT 01/M06 A3056 RMK A01 T00081055  RH  063%=      5-min Rain = 0
KMC4 120242Z 01011KT 01/M06 A3056 RMK A01 T00071057  RH  062%=      5-min Rain = 0
KMC4 120243Z 01013KT 01/M06 A3056 RMK A01 T00071057  RH  062%=      5-min Rain = 0
KMC4 120244Z 02013KT 01/M06 A3056 RMK A01 T00071058  RH  061%=      5-min Rain = 0
KMC4 120245Z 02011KT 01/M06 A3056 RMK A01 T00071057  RH  062%=      5-min Rain = 0
KMC4 120246Z 00010KT 01/M06 A3056 RMK A01 T00081056  RH  062%=      5-min Rain = 0
KMC4 120247Z 00008KT 01/M06 A3056 RMK A01 T00071058  RH  062%=      5-min Rain = 0
KMC4 120248Z 00006KT 01/M06 A3056 RMK A01 T00081057  RH  062%=      5-min Rain = 0
KMC4 120249Z 35007KT 01/M06 A3056 RMK A01 T00071057  RH  062%=      5-min Rain = 0
KMC4 120250Z 35010KT 01/M06 A3056 RMK A01 T00081056  RH  062%=      5-min Rain = 0
KMC4 120251Z 35012KT 01/M06 A3056 RMK A01 T00081058  RH  061%=      5-min Rain = 0
KMC4 120252Z 35011KT 01/M06 A3056 RMK A01 T00081060  RH  060%=      5-min Rain = 0
KMC4 120253Z 35010KT 01/M06 A3056 RMK A01 T00081061  RH  060%=      5-min Rain = 0
KMC4 120254Z 35008KT 01/M06 A3056 RMK A01 T00081061  RH  060%=      5-min Rain = 0
KMC4 120255Z 36009KT 01/M06 A3056 RMK A01 T00081059  RH  061%=      5-min Rain = 0
KMC4 120256Z 35008KT 01/M06 A3057 RMK A01 T00081058  RH  061%=      5-min Rain = 0
KMC4 120257Z 00009KT 01/M06 A3057 RMK A01 T00081059  RH  061%=      5-min Rain = 0
KMC4 120258Z 00013KT 01/M06 A3056 RMK A01 T00091059  RH  061%=      5-min Rain = 0
KMC4 120259Z 00012KT 01/M06 A3056 RMK A01 T00081061  RH  060%=      5-min Rain = 0
KMC4 120300Z 01010KT 01/M06 A3056 RMK A01 T00081062  RH  059%=      5-min Rain = 0
KMC4 120301Z 00009KT 01/M06 A3056 RMK A01 T00081061  RH  060%=      5-min Rain = 0
KMC4 120302Z 36009KT 01/M06 A3056 RMK A01 T00081060  RH  060%=      5-min Rain = 0
KMC4 120303Z 35008KT 01/M06 A3056 RMK A01 T00081060  RH  060%=      5-min Rain = 0
KMC4 120304Z 36011KT 01/M06 A3057 RMK A01 T00081060  RH  060%=      5-min Rain = 0
KMC4 120305Z 36009KT 01/M06 A3057 RMK A01 T00081061  RH  060%=      5-min Rain = 0
KMC4 120306Z 01013KT 01/M06 A3057 RMK A01 T00091061  RH  060%=      5-min Rain = 0
KMC4 120307Z 01010KT 01/M06 A3057 RMK A01 T00091062  RH  059%=      5-min Rain = 0
KMC4 120308Z 34009G14KT 01/M06 A3057 RMK A01 T00091062  RH  059%=      5-min Rain = 0
KMC4 120309Z 35010KT 01/M06 A3057 RMK A01 T00091061  RH  060%=      5-min Rain = 0
KMC4 120310Z 36010KT 01/M06 A3057 RMK A01 T00091062  RH  059%=      5-min Rain = 0
KMC4 120311Z 00013KT 01/M06 A3057 RMK A01 T00091063  RH  059%=      5-min Rain = 0
KMC4 120312Z 35013KT 01/M06 A3057 RMK A01 T00091064  RH  058%=      5-min Rain = 0
KMC4 120313Z 35013KT 01/M07 A3057 RMK A01 T00091065  RH  058%=      5-min Rain = 0
KMC4 120314Z 36011G16KT 01/M07 A3057 RMK A01 T00091065  RH  058%=      5-min Rain = 0
KMC4 120315Z 00013KT 01/M07 A3057 RMK A01 T00091065  RH  058%=      5-min Rain = 0
KMC4 120316Z 36012KT 01/M07 A3057 RMK A01 T00091065  RH  058%=      5-min Rain = 0
KMC4 120317Z 00009KT 01/M06 A3057 RMK A01 T00091064  RH  058%=      5-min Rain = 0
KMC4 120318Z 35007KT 01/M06 A3057 RMK A01 T00091063  RH  059%=      5-min Rain = 0
KMC4 120319Z 35007KT 01/M06 A3058 RMK A01 T00091060  RH  060%=      5-min Rain = 0
KMC4 120320Z 34010KT 01/M06 A3058 RMK A01 T00091059  RH  060%=      5-min Rain = 0
KMC4 120321Z 35008KT 01/M06 A3058 RMK A01 T00091059  RH  060%=      5-min Rain = 0
KMC4 120322Z 35010KT 01/M06 A3058 RMK A01 T00101060  RH  060%=      5-min Rain = 0
KMC4 120323Z 35012KT 01/M06 A3058 RMK A01 T00101063  RH  058%=      5-min Rain = 0
KMC4 120324Z 00011KT 01/M07 A3058 RMK A01 T00101065  RH  058%=      5-min Rain = 0
KMC4 120325Z 00009KT 01/M07 A3058 RMK A01 T00091065  RH  058%=      5-min Rain = 0
KMC4 120326Z 34008KT 01/M06 A3058 RMK A01 T00101063  RH  058%=      5-min Rain = 0
KMC4 120327Z 35008KT 01/M06 A3058 RMK A01 T00101062  RH  059%=      5-min Rain = 0
KMC4 120328Z 36011KT 01/M06 A3058 RMK A01 T00101062  RH  059%=      5-min Rain = 0
KMC4 120329Z 35012KT 01/M07 A3058 RMK A01 T00101065  RH  057%=      5-min Rain = 0
KMC4 120330Z 36014KT 01/M07 A3058 RMK A01 T00101066  RH  057%=      5-min Rain = 0
KMC4 120331Z 00015KT 01/M07 A3058 RMK A01 T00101068  RH  056%=      5-min Rain = 0
KMC4 120332Z 35009KT 01/M07 A3058 RMK A01 T00101066  RH  057%=      5-min Rain = 0
KMC4 120333Z 36011KT 01/M07 A3058 RMK A01 T00101065  RH  057%=      5-min Rain = 0
KMC4 120334Z 00009G14KT 01/M07 A3058 RMK A01 T00101066  RH  057%=      5-min Rain = 0
KMC4 120335Z 36013KT 01/M07 A3058 RMK A01 T00101068  RH  056%=      5-min Rain = 0
KMC4 120336Z 36011KT 01/M07 A3058 RMK A01 T00101069  RH  056%=      5-min Rain = 0
KMC4 120337Z 00011KT 01/M07 A3059 RMK A01 T00101068  RH  056%=      5-min Rain = 0
KMC4 120338Z 36006KT 01/M07 A3059 RMK A01 T00091069  RH  056%=      5-min Rain = 0
KMC4 120339Z 36007G12KT 01/M07 A3059 RMK A01 T00101066  RH  057%=      5-min Rain = 0
KMC4 120340Z 01009KT 01/M07 A3059 RMK A01 T00091066  RH  057%=      5-min Rain = 0
KMC4 120341Z 35008KT 01/M07 A3058 RMK A01 T00091067  RH  057%=      5-min Rain = 0
KMC4 120342Z 35008KT 01/M07 A3058 RMK A01 T00091066  RH  057%=      5-min Rain = 0
KMC4 120343Z 35011KT 01/M07 A3058 RMK A01 T00091065  RH  057%=      5-min Rain = 0
KMC4 120344Z 00010KT 01/M07 A3058 RMK A01 T00091065  RH  058%=      5-min Rain = 0
KMC4 120345Z 00012KT 01/M07 A3058 RMK A01 T00091065  RH  058%=      5-min Rain = 0
KMC4 120346Z 00010KT 01/M07 A3059 RMK A01 T00091067  RH  057%=      5-min Rain = 0
KMC4 120347Z 35011KT 01/M07 A3059 RMK A01 T00081066  RH  058%=      5-min Rain = 0
KMC4 120348Z 34012KT 01/M06 A3059 RMK A01 T00081063  RH  059%=      5-min Rain = 0
KMC4 120349Z 35010KT 01/M06 A3059 RMK A01 T00071061  RH  060%=      5-min Rain = 0
KMC4 120350Z 35012KT 01/M06 A3059 RMK A01 T00071061  RH  060%=      5-min Rain = 0
KMC4 120351Z 35012KT 01/M06 A3059 RMK A01 T00071063  RH  060%=      5-min Rain = 0
KMC4 120352Z 35010KT 01/M06 A3059 RMK A01 T00061062  RH  060%=      5-min Rain = 0
KMC4 120353Z 35008KT 01/M06 A306 RMK A01 T00061061  RH  061%=      5-min Rain = 0
KMC4 120354Z 36009KT 01/M06 A306 RMK A01 T00061059  RH  062%=      5-min Rain = 0
KMC4 120355Z 00011KT 01/M06 A306 RMK A01 T00061059  RH  062%=      5-min Rain = 0
KMC4 120356Z 02013KT 01/M06 A306 RMK A01 T00061059  RH  062%=      5-min Rain = 0
KMC4 120357Z 01010KT 01/M06 A306 RMK A01 T00061061  RH  061%=      5-min Rain = 0
KMC4 120358Z 01010G15KT 01/M06 A306 RMK A01 T00061062  RH  061%=      5-min Rain = 0
KMC4 120359Z 01010KT 01/M06 A306 RMK A01 T00051059  RH  062%=      5-min Rain = 0
KMC4 120400Z 00009G15KT 01/M06 A306 RMK A01 T00051059  RH  062%=      5-min Rain = 0
KMC4 120401Z 01008KT 01/M06 A306 RMK A01 T00051059  RH  062%=      5-min Rain = 0
KMC4 120402Z 01006KT 00/M06 A306 RMK A01 T00041060  RH  062%=      5-min Rain = 0
KMC4 120403Z 00007KT 00/M06 A306 RMK A01 T00041057  RH  063%=      5-min Rain = 0
KMC4 120404Z 36007KT 00/M06 A306 RMK A01 T00041056  RH  064%=      5-min Rain = 0
KMC4 120405Z 01008KT 00/M06 A306 RMK A01 T00041056  RH  064%=      5-min Rain = 0
KMC4 120406Z 00008KT 00/M06 A306 RMK A01 T00041057  RH  064%=      5-min Rain = 0
KMC4 120407Z 00009KT 00/M06 A306 RMK A01 T00041057  RH  064%=      5-min Rain = 0
KMC4 120408Z 01009KT 00/M06 A306 RMK A01 T00041057  RH  064%=      5-min Rain = 0
KMC4 120409Z 00006KT 00/M06 A306 RMK A01 T00041056  RH  064%=      5-min Rain = 0
KMC4 120410Z 36006KT 00/M06 A306 RMK A01 T00031056  RH  064%=      5-min Rain = 0
KMC4 120411Z 35006KT 00/M06 A306 RMK A01 T00031055  RH  065%=      5-min Rain = 0
KMC4 120412Z 00006KT 00/M05 A306 RMK A01 T00031054  RH  066%=      5-min Rain = 0
KMC4 120413Z 00006KT 00/M05 A306 RMK A01 T00031053  RH  066%=      5-min Rain = 0
KMC4 120414Z 34007G12KT 00/M05 A306 RMK A01 T00031053  RH  066%=      5-min Rain = 0
KMC4 120415Z 34010KT 00/M05 A306 RMK A01 T00041053  RH  066%=      5-min Rain = 0
KMC4 120416Z 35010KT 00/M05 A306 RMK A01 T00031054  RH  065%=      5-min Rain = 0
KMC4 120417Z 34011KT 00/M05 A306 RMK A01 T00031054  RH  065%=      5-min Rain = 0
KMC4 120418Z 34008KT 00/M06 A306 RMK A01 T00041056  RH  064%=      5-min Rain = 0
KMC4 120419Z 35009KT 00/M05 A306 RMK A01 T00041052  RH  066%=      5-min Rain = 0
KMC4 120420Z 35011KT 00/M05 A306 RMK A01 T00041053  RH  066%=      5-min Rain = 0
KMC4 120421Z 34010KT 00/M05 A306 RMK A01 T00041052  RH  066%=      5-min Rain = 0
KMC4 120422Z 34011KT 00/M05 A3061 RMK A01 T00041052  RH  066%=      5-min Rain = 0
KMC4 120423Z 35010KT 00/M05 A3061 RMK A01 T00031051  RH  067%=      5-min Rain = 0
KMC4 120424Z 01008KT 00/M05 A3061 RMK A01 T00031050  RH  068%=      5-min Rain = 0
KMC4 120425Z 35009KT 00/M05 A3061 RMK A01 T00031050  RH  067%=      5-min Rain = 0
KMC4 120426Z 35009KT 00/M05 A3061 RMK A01 T00031050  RH  067%=      5-min Rain = 0
KMC4 120427Z 35007KT 00/M05 A3061 RMK A01 T00031050  RH  067%=      5-min Rain = 0
KMC4 120428Z 00009KT 00/M05 A3061 RMK A01 T00031048  RH  068%=      5-min Rain = 0
KMC4 120429Z 01007KT 00/M05 A3061 RMK A01 T00031051  RH  067%=      5-min Rain = 0
KMC4 120430Z 36006KT 00/M05 A3061 RMK A01 T00031049  RH  068%=      5-min Rain = 0
KMC4 120431Z 01005KT 00/M05 A3061 RMK A01 T00031047  RH  069%=      5-min Rain = 0
KMC4 120432Z 35007KT 00/M05 A3061 RMK A01 T00031047  RH  070%=      5-min Rain = 0
KMC4 120433Z 35005KT 00/M05 A3061 RMK A01 T00021047  RH  069%=      5-min Rain = 0
KMC4 120434Z 34006KT 00/M05 A3061 RMK A01 T00031045  RH  070%=      5-min Rain = 0
KMC4 120435Z 00006KT 00/M04 A3061 RMK A01 T00021043  RH  071%=      5-min Rain = 0
KMC4 120436Z 35007KT 00/M04 A3061 RMK A01 T00021043  RH  071%=      5-min Rain = 0
KMC4 120437Z 00007KT 00/M05 A3061 RMK A01 T00021046  RH  070%=      5-min Rain = 0
KMC4 120438Z 36007KT 00/M05 A3061 RMK A01 T00021047  RH  070%=      5-min Rain = 0
KMC4 120439Z 36008KT 00/M05 A3061 RMK A01 T00021047  RH  070%=      5-min Rain = 0
KMC4 120440Z 36011KT 00/M05 A3061 RMK A01 T00021048  RH  069%=      5-min Rain = 0
KMC4 120441Z 00009KT 00/M05 A3061 RMK A01 T00021052  RH  067%=      5-min Rain = 0
KMC4 120442Z 00009KT 00/M05 A3061 RMK A01 T00021052  RH  067%=      5-min Rain = 0
KMC4 120443Z 35007KT 00/M05 A3061 RMK A01 T00021049  RH  069%=      5-min Rain = 0
KMC4 120444Z 35006KT 00/M05 A3061 RMK A01 T00011048  RH  070%=      5-min Rain = 0
KMC4 120445Z 35007KT 00/M05 A3061 RMK A01 T00021046  RH  070%=      5-min Rain = 0
KMC4 120446Z 34007KT 00/M05 A3061 RMK A01 T00021046  RH  071%=      5-min Rain = 0
KMC4 120447Z 35009KT 00/M05 A3061 RMK A01 T00021046  RH  070%=      5-min Rain = 0
KMC4 120448Z 36007KT 00/M05 A3062 RMK A01 T00011048  RH  070%=      5-min Rain = 0
KMC4 120449Z 35007KT 00/M05 A3062 RMK A01 T00011046  RH  070%=      5-min Rain = 0
KMC4 120450Z 35008KT 00/M05 A3062 RMK A01 T00011047  RH  070%=      5-min Rain = 0
KMC4 120451Z 35008KT 00/M05 A3062 RMK A01 T00011048  RH  070%=      5-min Rain = 0
KMC4 120452Z 35007KT 00/M05 A3062 RMK A01 T00011047  RH  070%=      5-min Rain = 0
KMC4 120453Z 35008KT 00/M05 A3062 RMK A01 T00011046  RH  070%=      5-min Rain = 0
KMC4 120454Z 35008KT 00/M05 A3062 RMK A01 T00011046  RH  071%=      5-min Rain = 0
KMC4 120455Z 35009KT 00/M05 A3062 RMK A01 T00011047  RH  070%=      5-min Rain = 0
KMC4 120456Z 35009KT 00/M05 A3062 RMK A01 T00011047  RH  070%=      5-min Rain = 0
KMC4 120457Z 35010KT 00/M05 A3062 RMK A01 T00011047  RH  070%=      5-min Rain = 0
KMC4 120458Z 34011KT 00/M05 A3062 RMK A01 T00011047  RH  070%=      5-min Rain = 0
KMC4 120459Z 35009KT 00/M05 A3062 RMK A01 T00011047  RH  070%=      5-min Rain = 0
KMC4 120500Z 00009KT 00/04 A3062 RMK A01 T00000-44  RH  072%=      5-min Rain = 0
KMC4 120501Z 35008KT 00/04 A3062 RMK A01 T00000-43  RH  073%=      5-min Rain = 0
KMC4 120502Z 35008KT 00/04 A3062 RMK A01 T00000-43  RH  073%=      5-min Rain = 0
KMC4 120503Z 36007KT 00/04 A3062 RMK A01 T00-00-44  RH  073%=      5-min Rain = 0
KMC4 120504Z 35006KT M00/M04 A3061 RMK A01 T10011043  RH  073%=      5-min Rain = 0
KMC4 120505Z 36006KT M00/M04 A3061 RMK A01 T10011042  RH  074%=      5-min Rain = 0
KMC4 120506Z 35004KT M00/M04 A3061 RMK A01 T10011040  RH  075%=      5-min Rain = 0
KMC4 120507Z 34005KT M00/M04 A3061 RMK A01 T10011038  RH  077%=      5-min Rain = 0
KMC4 120508Z 34006KT M00/M04 A3061 RMK A01 T10011038  RH  076%=      5-min Rain = 0
KMC4 120509Z 34007KT M00/M04 A3061 RMK A01 T10011039  RH  076%=      5-min Rain = 0
KMC4 120510Z 34007KT M00/M04 A3061 RMK A01 T10011041  RH  074%=      5-min Rain = 0
KMC4 120511Z 34006KT M00/M04 A3061 RMK A01 T10011041  RH  075%=      5-min Rain = 0
KMC4 120512Z 34005KT M00/M04 A3061 RMK A01 T10011040  RH  075%=      5-min Rain = 0
KMC4 120513Z 34006KT M00/M04 A3061 RMK A01 T10011040  RH  075%=      5-min Rain = 0
KMC4 120514Z 34006KT M00/M04 A3061 RMK A01 T10011039  RH  076%=      5-min Rain = 0
KMC4 120515Z 34004KT M00/M04 A3061 RMK A01 T10011038  RH  077%=      5-min Rain = 0
KMC4 120516Z 34007KT M00/M04 A3061 RMK A01 T10011035  RH  078%=      5-min Rain = 0
KMC4 120517Z 34008KT M00/M04 A3061 RMK A01 T10011037  RH  077%=      5-min Rain = 0
KMC4 120518Z 34007KT M00/M04 A3061 RMK A01 T10011039  RH  076%=      5-min Rain = 0
KMC4 120519Z 33006KT M00/M04 A3061 RMK A01 T10011039  RH  076%=      5-min Rain = 0
KMC4 120520Z 33005KT M00/M04 A3061 RMK A01 T10011037  RH  077%=      5-min Rain = 0
KMC4 120521Z 34005KT M00/M04 A3061 RMK A01 T10011036  RH  078%=      5-min Rain = 0
KMC4 120522Z 33005KT M00/M04 A3061 RMK A01 T10021037  RH  077%=      5-min Rain = 0
KMC4 120523Z 33005KT M00/M03 A3061 RMK A01 T10021034  RH  079%=      5-min Rain = 0
KMC4 120524Z 34005KT M00/M03 A3061 RMK A01 T10021033  RH  080%=      5-min Rain = 0
KMC4 120525Z 34005KT M00/M03 A3061 RMK A01 T10021033  RH  080%=      5-min Rain = 0
KMC4 120526Z 34005KT M00/M03 A3061 RMK A01 T10031033  RH  080%=      5-min Rain = 0
KMC4 120527Z 35004KT M00/M03 A3061 RMK A01 T10031033  RH  080%=      5-min Rain = 0
KMC4 120528Z 33004KT M00/M03 A3061 RMK A01 T10031031  RH  081%=      5-min Rain = 0
KMC4 120529Z 32003KT M00/M03 A3061 RMK A01 T10031030  RH  082%=      5-min Rain = 0
KMC4 120530Z 33005KT M00/M03 A3061 RMK A01 T10031029  RH  082%=      5-min Rain = 0
KMC4 120531Z 33005KT M00/M03 A3061 RMK A01 T10031030  RH  082%=      5-min Rain = 0
KMC4 120532Z 33003KT M00/M03 A3061 RMK A01 T10041031  RH  082%=      5-min Rain = 0
KMC4 120533Z 33004KT M00/M03 A3061 RMK A01 T10041029  RH  083%=      5-min Rain = 0
KMC4 120534Z 32004KT M00/M03 A3061 RMK A01 T10041027  RH  084%=      5-min Rain = 0
KMC4 120535Z 34005KT M00/M03 A3061 RMK A01 T10041027  RH  084%=      5-min Rain = 0
KMC4 120536Z 34003KT M00/M03 A3061 RMK A01 T10041029  RH  083%=      5-min Rain = 0
KMC4 120537Z 32003KT M00/M03 A3061 RMK A01 T10041028  RH  084%=      5-min Rain = 0
KMC4 120538Z 32004KT M01/M03 A3061 RMK A01 T10051027  RH  085%=      5-min Rain = 0
KMC4 120539Z 32005KT M01/M03 A3061 RMK A01 T10051028  RH  084%=      5-min Rain = 0
KMC4 120540Z 33004KT M01/M03 A3061 RMK A01 T10051029  RH  084%=      5-min Rain = 0
KMC4 120541Z 32004KT M01/M03 A3061 RMK A01 T10061030  RH  084%=      5-min Rain = 0
KMC4 120542Z 32004KT M01/M03 A3061 RMK A01 T10061030  RH  084%=      5-min Rain = 0
KMC4 120543Z 33005KT M01/M03 A3061 RMK A01 T10061029  RH  084%=      5-min Rain = 0
KMC4 120544Z 33004KT M01/M03 A3061 RMK A01 T10061029  RH  084%=      5-min Rain = 0
KMC4 120545Z 32003KT M01/M03 A3061 RMK A01 T10061029  RH  084%=      5-min Rain = 0
KMC4 120546Z 32004KT M01/M03 A3061 RMK A01 T10061029  RH  085%=      5-min Rain = 0
KMC4 120547Z 31004KT M01/M03 A3061 RMK A01 T10061029  RH  085%=      5-min Rain = 0
KMC4 120548Z 32004KT M01/M03 A3061 RMK A01 T10061029  RH  085%=      5-min Rain = 0
KMC4 120549Z 32004KT M01/M03 A3061 RMK A01 T10061028  RH  085%=      5-min Rain = 0
KMC4 120550Z 32004KT M01/M03 A3061 RMK A01 T10061028  RH  085%=      5-min Rain = 0
KMC4 120551Z 32004KT M01/M03 A3061 RMK A01 T10061028  RH  085%=      5-min Rain = 0
KMC4 120552Z 33004KT M01/M03 A3061 RMK A01 T10061028  RH  085%=      5-min Rain = 0
KMC4 120553Z 32004KT M01/M03 A3061 RMK A01 T10061027  RH  086%=      5-min Rain = 0
KMC4 120554Z 32004KT M01/M03 A3061 RMK A01 T10061026  RH  087%=      5-min Rain = 0
KMC4 120555Z 33004KT M01/M03 A3061 RMK A01 T10061027  RH  086%=      5-min Rain = 0
KMC4 120556Z 31004KT M01/M03 A3061 RMK A01 T10061027  RH  086%=      5-min Rain = 0
KMC4 120557Z 32003KT M01/M03 A3062 RMK A01 T10061026  RH  086%=      5-min Rain = 0
KMC4 120558Z 32003KT M01/M03 A3062 RMK A01 T10061026  RH  087%=      5-min Rain = 0
KMC4 120559Z 33003KT M01/M03 A3062 RMK A01 T10061025  RH  087%=      5-min Rain = 0

Page generated in 0.1282 seconds.